<?xml version="1.0" encoding="UTF-8" standalone="no" ?>
<gpx xmlns="http://www.topografix.com/GPX/1/1" xmlns:xsi="http://www.w3.org/2001/XMLSchema-instance" xsi:schemaLocation="http://www.topografix.com/GPX/1/1 http://www.topografix.com/GPX/1/1/gpx.xsd" version="1.1" creator="VisuGPX - https://www.visugpx.com">
  <metadata>
    <name>HBaV 2026_ROUTE M</name>
  </metadata>
  <trk>
    <name><![CDATA[rando - parcour MOYEN-23534373]]></name>
    <extensions>
      <line xmlns="http://www.topografix.com/GPX/gpx_style/0/2">
        <color>9007da</color>
        <opacity>1</opacity>
        <width>4</width>
      </line>
    </extensions>
    <trkseg>
      <trkpt lat="48.74136" lon="7.36012">
        <ele>198</ele>
        <time>2026-05-13T04:24:32Z</time>
      </trkpt>
      <trkpt lat="48.74114" lon="7.35971">
        <ele>198</ele>
        <time>2026-05-13T04:24:38Z</time>
      </trkpt>
      <trkpt lat="48.74098" lon="7.35939">
        <ele>199</ele>
        <time>2026-05-13T04:24:43Z</time>
      </trkpt>
      <trkpt lat="48.74086" lon="7.35918">
        <ele>199</ele>
        <time>2026-05-13T04:24:46Z</time>
      </trkpt>
      <trkpt lat="48.74092" lon="7.35652">
        <ele>197</ele>
        <time>2026-05-13T04:25:17Z</time>
      </trkpt>
      <trkpt lat="48.74091" lon="7.35637">
        <ele>196</ele>
        <time>2026-05-13T04:25:19Z</time>
      </trkpt>
      <trkpt lat="48.74088" lon="7.35626">
        <ele>196</ele>
        <time>2026-05-13T04:25:21Z</time>
      </trkpt>
      <trkpt lat="48.74091" lon="7.3548">
        <ele>193</ele>
        <time>2026-05-13T04:25:38Z</time>
      </trkpt>
      <trkpt lat="48.74091" lon="7.35453">
        <ele>193</ele>
        <time>2026-05-13T04:25:41Z</time>
      </trkpt>
      <trkpt lat="48.74083" lon="7.35455">
        <ele>194</ele>
        <time>2026-05-13T04:25:42Z</time>
      </trkpt>
      <trkpt lat="48.7404" lon="7.35471">
        <ele>197</ele>
        <time>2026-05-13T04:25:50Z</time>
      </trkpt>
      <trkpt lat="48.74042" lon="7.35506">
        <ele>197</ele>
        <time>2026-05-13T04:25:54Z</time>
      </trkpt>
      <trkpt lat="48.74046" lon="7.35523">
        <ele>197</ele>
        <time>2026-05-13T04:25:56Z</time>
      </trkpt>
      <trkpt lat="48.74049" lon="7.35537">
        <ele>197</ele>
        <time>2026-05-13T04:25:58Z</time>
      </trkpt>
      <trkpt lat="48.74073" lon="7.356">
        <ele>196</ele>
        <time>2026-05-13T04:26:07Z</time>
      </trkpt>
      <trkpt lat="48.74076" lon="7.35611">
        <ele>197</ele>
        <time>2026-05-13T04:26:08Z</time>
      </trkpt>
      <trkpt lat="48.74078" lon="7.3562">
        <ele>197</ele>
        <time>2026-05-13T04:26:09Z</time>
      </trkpt>
      <trkpt lat="48.74078" lon="7.35643">
        <ele>198</ele>
        <time>2026-05-13T04:26:12Z</time>
      </trkpt>
      <trkpt lat="48.74075" lon="7.35736">
        <ele>199</ele>
        <time>2026-05-13T04:26:23Z</time>
      </trkpt>
      <trkpt lat="48.74072" lon="7.35778">
        <ele>199</ele>
        <time>2026-05-13T04:26:28Z</time>
      </trkpt>
      <trkpt lat="48.74071" lon="7.35799">
        <ele>199</ele>
        <time>2026-05-13T04:26:30Z</time>
      </trkpt>
      <trkpt lat="48.7407" lon="7.35839">
        <ele>199</ele>
        <time>2026-05-13T04:26:35Z</time>
      </trkpt>
      <trkpt lat="48.74069" lon="7.35923">
        <ele>201</ele>
        <time>2026-05-13T04:26:45Z</time>
      </trkpt>
      <trkpt lat="48.7407" lon="7.35929">
        <ele>201</ele>
        <time>2026-05-13T04:26:46Z</time>
      </trkpt>
      <trkpt lat="48.74073" lon="7.35936">
        <ele>201</ele>
        <time>2026-05-13T04:26:47Z</time>
      </trkpt>
      <trkpt lat="48.74018" lon="7.35907">
        <ele>206</ele>
        <time>2026-05-13T04:26:57Z</time>
      </trkpt>
      <trkpt lat="48.74009" lon="7.35903">
        <ele>207</ele>
        <time>2026-05-13T04:26:59Z</time>
      </trkpt>
      <trkpt lat="48.73985" lon="7.35894">
        <ele>208</ele>
        <time>2026-05-13T04:27:03Z</time>
      </trkpt>
      <trkpt lat="48.73976" lon="7.35889">
        <ele>209</ele>
        <time>2026-05-13T04:27:05Z</time>
      </trkpt>
      <trkpt lat="48.73968" lon="7.35888">
        <ele>209</ele>
        <time>2026-05-13T04:27:06Z</time>
      </trkpt>
      <trkpt lat="48.73931" lon="7.35896">
        <ele>212</ele>
        <time>2026-05-13T04:27:13Z</time>
      </trkpt>
      <trkpt lat="48.7392" lon="7.35896">
        <ele>213</ele>
        <time>2026-05-13T04:27:15Z</time>
      </trkpt>
      <trkpt lat="48.73878" lon="7.35886">
        <ele>216</ele>
        <time>2026-05-13T04:27:22Z</time>
      </trkpt>
      <trkpt lat="48.73836" lon="7.35878">
        <ele>220</ele>
        <time>2026-05-13T04:27:30Z</time>
      </trkpt>
      <trkpt lat="48.7383" lon="7.35878">
        <ele>220</ele>
        <time>2026-05-13T04:27:31Z</time>
      </trkpt>
      <trkpt lat="48.73816" lon="7.35925">
        <ele>221</ele>
        <time>2026-05-13T04:27:37Z</time>
      </trkpt>
      <trkpt lat="48.73811" lon="7.35931">
        <ele>221</ele>
        <time>2026-05-13T04:27:38Z</time>
      </trkpt>
      <trkpt lat="48.73803" lon="7.35945">
        <ele>221</ele>
        <time>2026-05-13T04:27:40Z</time>
      </trkpt>
      <trkpt lat="48.73795" lon="7.3597">
        <ele>221</ele>
        <time>2026-05-13T04:27:43Z</time>
      </trkpt>
      <trkpt lat="48.7377" lon="7.36058">
        <ele>220</ele>
        <time>2026-05-13T04:27:55Z</time>
      </trkpt>
      <trkpt lat="48.73753" lon="7.36116">
        <ele>219</ele>
        <time>2026-05-13T04:28:02Z</time>
      </trkpt>
      <trkpt lat="48.73744" lon="7.36135">
        <ele>218</ele>
        <time>2026-05-13T04:28:05Z</time>
      </trkpt>
      <trkpt lat="48.73733" lon="7.36125">
        <ele>219</ele>
        <time>2026-05-13T04:28:07Z</time>
      </trkpt>
      <trkpt lat="48.73644" lon="7.36059">
        <ele>225</ele>
        <time>2026-05-13T04:28:25Z</time>
      </trkpt>
      <trkpt lat="48.73638" lon="7.36053">
        <ele>226</ele>
        <time>2026-05-13T04:28:26Z</time>
      </trkpt>
      <trkpt lat="48.73631" lon="7.3606">
        <ele>226</ele>
        <time>2026-05-13T04:28:28Z</time>
      </trkpt>
      <trkpt lat="48.73539" lon="7.3609">
        <ele>224</ele>
        <time>2026-05-13T04:28:44Z</time>
      </trkpt>
      <trkpt lat="48.73493" lon="7.36106">
        <ele>221</ele>
        <time>2026-05-13T04:28:53Z</time>
      </trkpt>
      <trkpt lat="48.73433" lon="7.36118">
        <ele>218</ele>
        <time>2026-05-13T04:29:04Z</time>
      </trkpt>
      <trkpt lat="48.73426" lon="7.3612">
        <ele>218</ele>
        <time>2026-05-13T04:29:05Z</time>
      </trkpt>
      <trkpt lat="48.73422" lon="7.36127">
        <ele>218</ele>
        <time>2026-05-13T04:29:06Z</time>
      </trkpt>
      <trkpt lat="48.73415" lon="7.36119">
        <ele>218</ele>
        <time>2026-05-13T04:29:07Z</time>
      </trkpt>
      <trkpt lat="48.734" lon="7.36097">
        <ele>219</ele>
        <time>2026-05-13T04:29:11Z</time>
      </trkpt>
      <trkpt lat="48.73381" lon="7.36063">
        <ele>220</ele>
        <time>2026-05-13T04:29:16Z</time>
      </trkpt>
      <trkpt lat="48.73362" lon="7.36023">
        <ele>221</ele>
        <time>2026-05-13T04:29:22Z</time>
      </trkpt>
      <trkpt lat="48.73319" lon="7.35915">
        <ele>224</ele>
        <time>2026-05-13T04:29:37Z</time>
      </trkpt>
      <trkpt lat="48.73283" lon="7.35821">
        <ele>229</ele>
        <time>2026-05-13T04:29:50Z</time>
      </trkpt>
      <trkpt lat="48.73248" lon="7.35727">
        <ele>230</ele>
        <time>2026-05-13T04:30:02Z</time>
      </trkpt>
      <trkpt lat="48.73224" lon="7.35655">
        <ele>233</ele>
        <time>2026-05-13T04:30:12Z</time>
      </trkpt>
      <trkpt lat="48.73221" lon="7.35645">
        <ele>233</ele>
        <time>2026-05-13T04:30:13Z</time>
      </trkpt>
      <trkpt lat="48.73214" lon="7.35617">
        <ele>233</ele>
        <time>2026-05-13T04:30:17Z</time>
      </trkpt>
      <trkpt lat="48.73209" lon="7.35604">
        <ele>234</ele>
        <time>2026-05-13T04:30:18Z</time>
      </trkpt>
      <trkpt lat="48.73161" lon="7.35682">
        <ele>233</ele>
        <time>2026-05-13T04:30:31Z</time>
      </trkpt>
      <trkpt lat="48.73153" lon="7.3569">
        <ele>233</ele>
        <time>2026-05-13T04:30:33Z</time>
      </trkpt>
      <trkpt lat="48.73114" lon="7.35716">
        <ele>233</ele>
        <time>2026-05-13T04:30:40Z</time>
      </trkpt>
      <trkpt lat="48.73109" lon="7.3572">
        <ele>233</ele>
        <time>2026-05-13T04:30:41Z</time>
      </trkpt>
      <trkpt lat="48.73105" lon="7.35724">
        <ele>233</ele>
        <time>2026-05-13T04:30:42Z</time>
      </trkpt>
      <trkpt lat="48.73101" lon="7.35732">
        <ele>233</ele>
        <time>2026-05-13T04:30:43Z</time>
      </trkpt>
      <trkpt lat="48.7309" lon="7.35761">
        <ele>234</ele>
        <time>2026-05-13T04:30:47Z</time>
      </trkpt>
      <trkpt lat="48.73044" lon="7.35726">
        <ele>232</ele>
        <time>2026-05-13T04:30:56Z</time>
      </trkpt>
      <trkpt lat="48.73029" lon="7.35811">
        <ele>233</ele>
        <time>2026-05-13T04:31:07Z</time>
      </trkpt>
      <trkpt lat="48.73025" lon="7.35813">
        <ele>233</ele>
        <time>2026-05-13T04:31:07Z</time>
      </trkpt>
      <trkpt lat="48.73012" lon="7.35879">
        <ele>235</ele>
        <time>2026-05-13T04:31:16Z</time>
      </trkpt>
      <trkpt lat="48.72997" lon="7.35939">
        <ele>236</ele>
        <time>2026-05-13T04:31:23Z</time>
      </trkpt>
      <trkpt lat="48.72984" lon="7.3598">
        <ele>236</ele>
        <time>2026-05-13T04:31:28Z</time>
      </trkpt>
      <trkpt lat="48.72949" lon="7.36065">
        <ele>236</ele>
        <time>2026-05-13T04:31:40Z</time>
      </trkpt>
      <trkpt lat="48.72907" lon="7.36135">
        <ele>237</ele>
        <time>2026-05-13T04:31:51Z</time>
      </trkpt>
      <trkpt lat="48.72871" lon="7.36198">
        <ele>239</ele>
        <time>2026-05-13T04:32:01Z</time>
      </trkpt>
      <trkpt lat="48.72858" lon="7.36221">
        <ele>240</ele>
        <time>2026-05-13T04:32:05Z</time>
      </trkpt>
      <trkpt lat="48.72855" lon="7.36236">
        <ele>240</ele>
        <time>2026-05-13T04:32:06Z</time>
      </trkpt>
      <trkpt lat="48.72849" lon="7.36248">
        <ele>241</ele>
        <time>2026-05-13T04:32:08Z</time>
      </trkpt>
      <trkpt lat="48.72832" lon="7.36264">
        <ele>241</ele>
        <time>2026-05-13T04:32:12Z</time>
      </trkpt>
      <trkpt lat="48.72824" lon="7.36278">
        <ele>241</ele>
        <time>2026-05-13T04:32:14Z</time>
      </trkpt>
      <trkpt lat="48.72818" lon="7.36272">
        <ele>241</ele>
        <time>2026-05-13T04:32:15Z</time>
      </trkpt>
      <trkpt lat="48.72809" lon="7.36267">
        <ele>240</ele>
        <time>2026-05-13T04:32:17Z</time>
      </trkpt>
      <trkpt lat="48.72751" lon="7.36267">
        <ele>237</ele>
        <time>2026-05-13T04:32:27Z</time>
      </trkpt>
      <trkpt lat="48.72734" lon="7.36263">
        <ele>236</ele>
        <time>2026-05-13T04:32:30Z</time>
      </trkpt>
      <trkpt lat="48.72537" lon="7.36205">
        <ele>222</ele>
        <time>2026-05-13T04:33:06Z</time>
      </trkpt>
      <trkpt lat="48.72451" lon="7.36179">
        <ele>215</ele>
        <time>2026-05-13T04:33:22Z</time>
      </trkpt>
      <trkpt lat="48.72392" lon="7.3616">
        <ele>212</ele>
        <time>2026-05-13T04:33:32Z</time>
      </trkpt>
      <trkpt lat="48.72366" lon="7.3615">
        <ele>211</ele>
        <time>2026-05-13T04:33:37Z</time>
      </trkpt>
      <trkpt lat="48.72361" lon="7.36147">
        <ele>210</ele>
        <time>2026-05-13T04:33:38Z</time>
      </trkpt>
      <trkpt lat="48.72356" lon="7.36144">
        <ele>210</ele>
        <time>2026-05-13T04:33:39Z</time>
      </trkpt>
      <trkpt lat="48.72354" lon="7.36143">
        <ele>210</ele>
        <time>2026-05-13T04:33:39Z</time>
      </trkpt>
      <trkpt lat="48.72333" lon="7.36133">
        <ele>209</ele>
        <time>2026-05-13T04:33:43Z</time>
      </trkpt>
      <trkpt lat="48.7229" lon="7.36112">
        <ele>211</ele>
        <time>2026-05-13T04:33:51Z</time>
      </trkpt>
      <trkpt lat="48.72278" lon="7.36107">
        <ele>211</ele>
        <time>2026-05-13T04:33:54Z</time>
      </trkpt>
      <trkpt lat="48.72264" lon="7.36106">
        <ele>211</ele>
        <time>2026-05-13T04:33:56Z</time>
      </trkpt>
      <trkpt lat="48.72257" lon="7.36108">
        <ele>211</ele>
        <time>2026-05-13T04:33:57Z</time>
      </trkpt>
      <trkpt lat="48.72246" lon="7.36113">
        <ele>211</ele>
        <time>2026-05-13T04:33:59Z</time>
      </trkpt>
      <trkpt lat="48.7223" lon="7.36124">
        <ele>211</ele>
        <time>2026-05-13T04:34:02Z</time>
      </trkpt>
      <trkpt lat="48.7222" lon="7.36132">
        <ele>210</ele>
        <time>2026-05-13T04:34:04Z</time>
      </trkpt>
      <trkpt lat="48.72203" lon="7.36147">
        <ele>209</ele>
        <time>2026-05-13T04:34:08Z</time>
      </trkpt>
      <trkpt lat="48.72193" lon="7.36155">
        <ele>209</ele>
        <time>2026-05-13T04:34:10Z</time>
      </trkpt>
      <trkpt lat="48.72168" lon="7.36173">
        <ele>208</ele>
        <time>2026-05-13T04:34:15Z</time>
      </trkpt>
      <trkpt lat="48.72113" lon="7.36203">
        <ele>204</ele>
        <time>2026-05-13T04:34:25Z</time>
      </trkpt>
      <trkpt lat="48.721" lon="7.36211">
        <ele>203</ele>
        <time>2026-05-13T04:34:28Z</time>
      </trkpt>
      <trkpt lat="48.72097" lon="7.36214">
        <ele>202</ele>
        <time>2026-05-13T04:34:28Z</time>
      </trkpt>
      <trkpt lat="48.72044" lon="7.36256">
        <ele>198</ele>
        <time>2026-05-13T04:34:39Z</time>
      </trkpt>
      <trkpt lat="48.72002" lon="7.36281">
        <ele>196</ele>
        <time>2026-05-13T04:34:47Z</time>
      </trkpt>
      <trkpt lat="48.71994" lon="7.36286">
        <ele>196</ele>
        <time>2026-05-13T04:34:49Z</time>
      </trkpt>
      <trkpt lat="48.7198" lon="7.3629">
        <ele>196</ele>
        <time>2026-05-13T04:34:51Z</time>
      </trkpt>
      <trkpt lat="48.71974" lon="7.36291">
        <ele>196</ele>
        <time>2026-05-13T04:34:52Z</time>
      </trkpt>
      <trkpt lat="48.71966" lon="7.36291">
        <ele>195</ele>
        <time>2026-05-13T04:34:54Z</time>
      </trkpt>
      <trkpt lat="48.71959" lon="7.36288">
        <ele>195</ele>
        <time>2026-05-13T04:34:55Z</time>
      </trkpt>
      <trkpt lat="48.71887" lon="7.36243">
        <ele>195</ele>
        <time>2026-05-13T04:35:09Z</time>
      </trkpt>
      <trkpt lat="48.7185" lon="7.36222">
        <ele>195</ele>
        <time>2026-05-13T04:35:16Z</time>
      </trkpt>
      <trkpt lat="48.71814" lon="7.36202">
        <ele>195</ele>
        <time>2026-05-13T04:35:23Z</time>
      </trkpt>
      <trkpt lat="48.7181" lon="7.36203">
        <ele>195</ele>
        <time>2026-05-13T04:35:23Z</time>
      </trkpt>
      <trkpt lat="48.71806" lon="7.36205">
        <ele>195</ele>
        <time>2026-05-13T04:35:24Z</time>
      </trkpt>
      <trkpt lat="48.71693" lon="7.36269">
        <ele>199</ele>
        <time>2026-05-13T04:35:46Z</time>
      </trkpt>
      <trkpt lat="48.71688" lon="7.36272">
        <ele>199</ele>
        <time>2026-05-13T04:35:47Z</time>
      </trkpt>
      <trkpt lat="48.71616" lon="7.363">
        <ele>201</ele>
        <time>2026-05-13T04:36:00Z</time>
      </trkpt>
      <trkpt lat="48.71595" lon="7.36309">
        <ele>202</ele>
        <time>2026-05-13T04:36:04Z</time>
      </trkpt>
      <trkpt lat="48.71543" lon="7.3633">
        <ele>203</ele>
        <time>2026-05-13T04:36:13Z</time>
      </trkpt>
      <trkpt lat="48.71436" lon="7.36379">
        <ele>213</ele>
        <time>2026-05-13T04:36:33Z</time>
      </trkpt>
      <trkpt lat="48.71422" lon="7.36384">
        <ele>214</ele>
        <time>2026-05-13T04:36:36Z</time>
      </trkpt>
      <trkpt lat="48.71359" lon="7.364">
        <ele>217</ele>
        <time>2026-05-13T04:36:47Z</time>
      </trkpt>
      <trkpt lat="48.71321" lon="7.36404">
        <ele>219</ele>
        <time>2026-05-13T04:36:54Z</time>
      </trkpt>
      <trkpt lat="48.71198" lon="7.36403">
        <ele>221</ele>
        <time>2026-05-13T04:37:16Z</time>
      </trkpt>
      <trkpt lat="48.71037" lon="7.36399">
        <ele>222</ele>
        <time>2026-05-13T04:37:44Z</time>
      </trkpt>
      <trkpt lat="48.71" lon="7.36401">
        <ele>223</ele>
        <time>2026-05-13T04:37:51Z</time>
      </trkpt>
      <trkpt lat="48.70998" lon="7.36404">
        <ele>223</ele>
        <time>2026-05-13T04:37:52Z</time>
      </trkpt>
      <trkpt lat="48.70997" lon="7.36408">
        <ele>223</ele>
        <time>2026-05-13T04:37:52Z</time>
      </trkpt>
      <trkpt lat="48.70979" lon="7.364">
        <ele>223</ele>
        <time>2026-05-13T04:37:55Z</time>
      </trkpt>
      <trkpt lat="48.7097" lon="7.36398">
        <ele>223</ele>
        <time>2026-05-13T04:37:57Z</time>
      </trkpt>
      <trkpt lat="48.70962" lon="7.36397">
        <ele>223</ele>
        <time>2026-05-13T04:37:58Z</time>
      </trkpt>
      <trkpt lat="48.70956" lon="7.3638">
        <ele>223</ele>
        <time>2026-05-13T04:38:01Z</time>
      </trkpt>
      <trkpt lat="48.70945" lon="7.36365">
        <ele>224</ele>
        <time>2026-05-13T04:38:03Z</time>
      </trkpt>
      <trkpt lat="48.70809" lon="7.3625">
        <ele>225</ele>
        <time>2026-05-13T04:38:31Z</time>
      </trkpt>
      <trkpt lat="48.70665" lon="7.36128">
        <ele>220</ele>
        <time>2026-05-13T04:39:00Z</time>
      </trkpt>
      <trkpt lat="48.70561" lon="7.36037">
        <ele>216</ele>
        <time>2026-05-13T04:39:22Z</time>
      </trkpt>
      <trkpt lat="48.70514" lon="7.35997">
        <ele>217</ele>
        <time>2026-05-13T04:39:31Z</time>
      </trkpt>
      <trkpt lat="48.70493" lon="7.35968">
        <ele>217</ele>
        <time>2026-05-13T04:39:36Z</time>
      </trkpt>
      <trkpt lat="48.70404" lon="7.35802">
        <ele>215</ele>
        <time>2026-05-13T04:40:01Z</time>
      </trkpt>
      <trkpt lat="48.70366" lon="7.35732">
        <ele>215</ele>
        <time>2026-05-13T04:40:12Z</time>
      </trkpt>
      <trkpt lat="48.70338" lon="7.35675">
        <ele>214</ele>
        <time>2026-05-13T04:40:20Z</time>
      </trkpt>
      <trkpt lat="48.7031" lon="7.35618">
        <ele>215</ele>
        <time>2026-05-13T04:40:29Z</time>
      </trkpt>
      <trkpt lat="48.70296" lon="7.35596">
        <ele>216</ele>
        <time>2026-05-13T04:40:32Z</time>
      </trkpt>
      <trkpt lat="48.7028" lon="7.35577">
        <ele>217</ele>
        <time>2026-05-13T04:40:36Z</time>
      </trkpt>
      <trkpt lat="48.70274" lon="7.35569">
        <ele>218</ele>
        <time>2026-05-13T04:40:37Z</time>
      </trkpt>
      <trkpt lat="48.70254" lon="7.35545">
        <ele>220</ele>
        <time>2026-05-13T04:40:42Z</time>
      </trkpt>
      <trkpt lat="48.70245" lon="7.35529">
        <ele>220</ele>
        <time>2026-05-13T04:40:44Z</time>
      </trkpt>
      <trkpt lat="48.70233" lon="7.35503">
        <ele>221</ele>
        <time>2026-05-13T04:40:48Z</time>
      </trkpt>
      <trkpt lat="48.70185" lon="7.35383">
        <ele>219</ele>
        <time>2026-05-13T04:41:05Z</time>
      </trkpt>
      <trkpt lat="48.70183" lon="7.35371">
        <ele>218</ele>
        <time>2026-05-13T04:41:06Z</time>
      </trkpt>
      <trkpt lat="48.70187" lon="7.3536">
        <ele>218</ele>
        <time>2026-05-13T04:41:08Z</time>
      </trkpt>
      <trkpt lat="48.70199" lon="7.35337">
        <ele>216</ele>
        <time>2026-05-13T04:41:11Z</time>
      </trkpt>
      <trkpt lat="48.70221" lon="7.35292">
        <ele>214</ele>
        <time>2026-05-13T04:41:18Z</time>
      </trkpt>
      <trkpt lat="48.70222" lon="7.35281">
        <ele>214</ele>
        <time>2026-05-13T04:41:19Z</time>
      </trkpt>
      <trkpt lat="48.70223" lon="7.35268">
        <ele>214</ele>
        <time>2026-05-13T04:41:20Z</time>
      </trkpt>
      <trkpt lat="48.70215" lon="7.35231">
        <ele>213</ele>
        <time>2026-05-13T04:41:25Z</time>
      </trkpt>
      <trkpt lat="48.70191" lon="7.35234">
        <ele>215</ele>
        <time>2026-05-13T04:41:29Z</time>
      </trkpt>
      <trkpt lat="48.70172" lon="7.35241">
        <ele>216</ele>
        <time>2026-05-13T04:41:33Z</time>
      </trkpt>
      <trkpt lat="48.70143" lon="7.35248">
        <ele>218</ele>
        <time>2026-05-13T04:41:38Z</time>
      </trkpt>
      <trkpt lat="48.70137" lon="7.35248">
        <ele>218</ele>
        <time>2026-05-13T04:41:39Z</time>
      </trkpt>
      <trkpt lat="48.70131" lon="7.35244">
        <ele>219</ele>
        <time>2026-05-13T04:41:40Z</time>
      </trkpt>
      <trkpt lat="48.70125" lon="7.35238">
        <ele>219</ele>
        <time>2026-05-13T04:41:42Z</time>
      </trkpt>
      <trkpt lat="48.70049" lon="7.351">
        <ele>223</ele>
        <time>2026-05-13T04:42:03Z</time>
      </trkpt>
      <trkpt lat="48.70045" lon="7.35091">
        <ele>223</ele>
        <time>2026-05-13T04:42:04Z</time>
      </trkpt>
      <trkpt lat="48.70024" lon="7.35012">
        <ele>221</ele>
        <time>2026-05-13T04:42:14Z</time>
      </trkpt>
      <trkpt lat="48.70018" lon="7.34997">
        <ele>221</ele>
        <time>2026-05-13T04:42:16Z</time>
      </trkpt>
      <trkpt lat="48.69973" lon="7.34922">
        <ele>221</ele>
        <time>2026-05-13T04:42:28Z</time>
      </trkpt>
      <trkpt lat="48.69924" lon="7.34845">
        <ele>224</ele>
        <time>2026-05-13T04:42:40Z</time>
      </trkpt>
      <trkpt lat="48.69881" lon="7.34799">
        <ele>226</ele>
        <time>2026-05-13T04:42:50Z</time>
      </trkpt>
      <trkpt lat="48.69826" lon="7.34749">
        <ele>226</ele>
        <time>2026-05-13T04:43:01Z</time>
      </trkpt>
      <trkpt lat="48.69816" lon="7.34745">
        <ele>227</ele>
        <time>2026-05-13T04:43:03Z</time>
      </trkpt>
      <trkpt lat="48.69809" lon="7.34728">
        <ele>227</ele>
        <time>2026-05-13T04:43:05Z</time>
      </trkpt>
      <trkpt lat="48.69768" lon="7.34672">
        <ele>226</ele>
        <time>2026-05-13T04:43:15Z</time>
      </trkpt>
      <trkpt lat="48.69698" lon="7.34561">
        <ele>227</ele>
        <time>2026-05-13T04:43:33Z</time>
      </trkpt>
      <trkpt lat="48.69675" lon="7.34528">
        <ele>227</ele>
        <time>2026-05-13T04:43:39Z</time>
      </trkpt>
      <trkpt lat="48.69625" lon="7.34485">
        <ele>228</ele>
        <time>2026-05-13T04:43:49Z</time>
      </trkpt>
      <trkpt lat="48.69594" lon="7.34453">
        <ele>229</ele>
        <time>2026-05-13T04:43:56Z</time>
      </trkpt>
      <trkpt lat="48.69574" lon="7.34427">
        <ele>230</ele>
        <time>2026-05-13T04:44:00Z</time>
      </trkpt>
      <trkpt lat="48.69538" lon="7.34356">
        <ele>231</ele>
        <time>2026-05-13T04:44:11Z</time>
      </trkpt>
      <trkpt lat="48.69524" lon="7.34321">
        <ele>230</ele>
        <time>2026-05-13T04:44:16Z</time>
      </trkpt>
      <trkpt lat="48.69513" lon="7.34282">
        <ele>231</ele>
        <time>2026-05-13T04:44:21Z</time>
      </trkpt>
      <trkpt lat="48.69508" lon="7.34268">
        <ele>231</ele>
        <time>2026-05-13T04:44:23Z</time>
      </trkpt>
      <trkpt lat="48.69466" lon="7.34189">
        <ele>233</ele>
        <time>2026-05-13T04:44:35Z</time>
      </trkpt>
      <trkpt lat="48.69438" lon="7.34127">
        <ele>235</ele>
        <time>2026-05-13T04:44:43Z</time>
      </trkpt>
      <trkpt lat="48.69432" lon="7.34108">
        <ele>235</ele>
        <time>2026-05-13T04:44:46Z</time>
      </trkpt>
      <trkpt lat="48.69404" lon="7.34033">
        <ele>237</ele>
        <time>2026-05-13T04:44:56Z</time>
      </trkpt>
      <trkpt lat="48.69364" lon="7.33926">
        <ele>240</ele>
        <time>2026-05-13T04:45:10Z</time>
      </trkpt>
      <trkpt lat="48.69357" lon="7.33901">
        <ele>242</ele>
        <time>2026-05-13T04:45:14Z</time>
      </trkpt>
      <trkpt lat="48.69352" lon="7.33881">
        <ele>243</ele>
        <time>2026-05-13T04:45:16Z</time>
      </trkpt>
      <trkpt lat="48.69329" lon="7.33751">
        <ele>247</ele>
        <time>2026-05-13T04:45:32Z</time>
      </trkpt>
      <trkpt lat="48.69324" lon="7.33719">
        <ele>248</ele>
        <time>2026-05-13T04:45:36Z</time>
      </trkpt>
      <trkpt lat="48.69314" lon="7.33679">
        <ele>249</ele>
        <time>2026-05-13T04:45:41Z</time>
      </trkpt>
      <trkpt lat="48.69282" lon="7.33577">
        <ele>253</ele>
        <time>2026-05-13T04:45:54Z</time>
      </trkpt>
      <trkpt lat="48.69254" lon="7.33488">
        <ele>257</ele>
        <time>2026-05-13T04:46:06Z</time>
      </trkpt>
      <trkpt lat="48.69235" lon="7.33414">
        <ele>261</ele>
        <time>2026-05-13T04:46:15Z</time>
      </trkpt>
      <trkpt lat="48.69232" lon="7.33381">
        <ele>263</ele>
        <time>2026-05-13T04:46:19Z</time>
      </trkpt>
      <trkpt lat="48.69229" lon="7.33307">
        <ele>267</ele>
        <time>2026-05-13T04:46:28Z</time>
      </trkpt>
      <trkpt lat="48.69227" lon="7.33257">
        <ele>269</ele>
        <time>2026-05-13T04:46:33Z</time>
      </trkpt>
      <trkpt lat="48.69221" lon="7.33166">
        <ele>276</ele>
        <time>2026-05-13T04:46:44Z</time>
      </trkpt>
      <trkpt lat="48.69213" lon="7.33109">
        <ele>282</ele>
        <time>2026-05-13T04:46:51Z</time>
      </trkpt>
      <trkpt lat="48.69198" lon="7.33039">
        <ele>289</ele>
        <time>2026-05-13T04:47:00Z</time>
      </trkpt>
      <trkpt lat="48.69192" lon="7.33018">
        <ele>290</ele>
        <time>2026-05-13T04:47:02Z</time>
      </trkpt>
      <trkpt lat="48.69173" lon="7.32984">
        <ele>294</ele>
        <time>2026-05-13T04:47:08Z</time>
      </trkpt>
      <trkpt lat="48.69162" lon="7.32966">
        <ele>296</ele>
        <time>2026-05-13T04:47:11Z</time>
      </trkpt>
      <trkpt lat="48.69155" lon="7.32954">
        <ele>298</ele>
        <time>2026-05-13T04:47:12Z</time>
      </trkpt>
      <trkpt lat="48.69109" lon="7.32892">
        <ele>302</ele>
        <time>2026-05-13T04:47:23Z</time>
      </trkpt>
      <trkpt lat="48.69069" lon="7.32847">
        <ele>303</ele>
        <time>2026-05-13T04:47:32Z</time>
      </trkpt>
      <trkpt lat="48.69042" lon="7.3282">
        <ele>303</ele>
        <time>2026-05-13T04:47:38Z</time>
      </trkpt>
      <trkpt lat="48.68983" lon="7.32762">
        <ele>300</ele>
        <time>2026-05-13T04:47:50Z</time>
      </trkpt>
      <trkpt lat="48.68948" lon="7.32732">
        <ele>301</ele>
        <time>2026-05-13T04:47:58Z</time>
      </trkpt>
      <trkpt lat="48.68916" lon="7.32704">
        <ele>301</ele>
        <time>2026-05-13T04:48:04Z</time>
      </trkpt>
      <trkpt lat="48.68904" lon="7.32689">
        <ele>302</ele>
        <time>2026-05-13T04:48:07Z</time>
      </trkpt>
      <trkpt lat="48.68891" lon="7.32659">
        <ele>306</ele>
        <time>2026-05-13T04:48:11Z</time>
      </trkpt>
      <trkpt lat="48.68878" lon="7.3264">
        <ele>310</ele>
        <time>2026-05-13T04:48:14Z</time>
      </trkpt>
      <trkpt lat="48.68832" lon="7.32593">
        <ele>313</ele>
        <time>2026-05-13T04:48:24Z</time>
      </trkpt>
      <trkpt lat="48.68814" lon="7.3257">
        <ele>315</ele>
        <time>2026-05-13T04:48:28Z</time>
      </trkpt>
      <trkpt lat="48.68799" lon="7.32538">
        <ele>319</ele>
        <time>2026-05-13T04:48:33Z</time>
      </trkpt>
      <trkpt lat="48.68791" lon="7.32521">
        <ele>321</ele>
        <time>2026-05-13T04:48:36Z</time>
      </trkpt>
      <trkpt lat="48.68768" lon="7.32488">
        <ele>320</ele>
        <time>2026-05-13T04:48:41Z</time>
      </trkpt>
      <trkpt lat="48.6871" lon="7.32423">
        <ele>320</ele>
        <time>2026-05-13T04:48:54Z</time>
      </trkpt>
      <trkpt lat="48.68636" lon="7.32352">
        <ele>328</ele>
        <time>2026-05-13T04:49:10Z</time>
      </trkpt>
      <trkpt lat="48.68593" lon="7.32314">
        <ele>334</ele>
        <time>2026-05-13T04:49:18Z</time>
      </trkpt>
      <trkpt lat="48.68555" lon="7.32267">
        <ele>339</ele>
        <time>2026-05-13T04:49:27Z</time>
      </trkpt>
      <trkpt lat="48.68542" lon="7.3225">
        <ele>340</ele>
        <time>2026-05-13T04:49:30Z</time>
      </trkpt>
      <trkpt lat="48.68447" lon="7.32153">
        <ele>340</ele>
        <time>2026-05-13T04:49:51Z</time>
      </trkpt>
      <trkpt lat="48.68423" lon="7.32129">
        <ele>340</ele>
        <time>2026-05-13T04:49:56Z</time>
      </trkpt>
      <trkpt lat="48.68374" lon="7.3209">
        <ele>343</ele>
        <time>2026-05-13T04:50:06Z</time>
      </trkpt>
      <trkpt lat="48.68371" lon="7.32087">
        <ele>343</ele>
        <time>2026-05-13T04:50:06Z</time>
      </trkpt>
      <trkpt lat="48.68276" lon="7.32013">
        <ele>340</ele>
        <time>2026-05-13T04:50:25Z</time>
      </trkpt>
      <trkpt lat="48.68192" lon="7.31938">
        <ele>335</ele>
        <time>2026-05-13T04:50:43Z</time>
      </trkpt>
      <trkpt lat="48.68093" lon="7.31887">
        <ele>333</ele>
        <time>2026-05-13T04:51:01Z</time>
      </trkpt>
      <trkpt lat="48.68073" lon="7.31874">
        <ele>331</ele>
        <time>2026-05-13T04:51:05Z</time>
      </trkpt>
      <trkpt lat="48.68023" lon="7.31848">
        <ele>325</ele>
        <time>2026-05-13T04:51:14Z</time>
      </trkpt>
      <trkpt lat="48.6799" lon="7.31831">
        <ele>322</ele>
        <time>2026-05-13T04:51:21Z</time>
      </trkpt>
      <trkpt lat="48.6798" lon="7.31829">
        <ele>322</ele>
        <time>2026-05-13T04:51:22Z</time>
      </trkpt>
      <trkpt lat="48.67972" lon="7.31834">
        <ele>320</ele>
        <time>2026-05-13T04:51:24Z</time>
      </trkpt>
      <trkpt lat="48.6795" lon="7.31868">
        <ele>316</ele>
        <time>2026-05-13T04:51:30Z</time>
      </trkpt>
      <trkpt lat="48.67942" lon="7.31875">
        <ele>315</ele>
        <time>2026-05-13T04:51:31Z</time>
      </trkpt>
      <trkpt lat="48.67941" lon="7.3187">
        <ele>316</ele>
        <time>2026-05-13T04:51:32Z</time>
      </trkpt>
      <trkpt lat="48.67939" lon="7.31866">
        <ele>316</ele>
        <time>2026-05-13T04:51:32Z</time>
      </trkpt>
      <trkpt lat="48.67934" lon="7.31862">
        <ele>316</ele>
        <time>2026-05-13T04:51:33Z</time>
      </trkpt>
      <trkpt lat="48.67873" lon="7.31817">
        <ele>320</ele>
        <time>2026-05-13T04:51:46Z</time>
      </trkpt>
      <trkpt lat="48.67845" lon="7.31794">
        <ele>322</ele>
        <time>2026-05-13T04:51:51Z</time>
      </trkpt>
      <trkpt lat="48.67827" lon="7.31778">
        <ele>323</ele>
        <time>2026-05-13T04:51:55Z</time>
      </trkpt>
      <trkpt lat="48.67796" lon="7.31753">
        <ele>325</ele>
        <time>2026-05-13T04:52:01Z</time>
      </trkpt>
      <trkpt lat="48.67769" lon="7.31737">
        <ele>328</ele>
        <time>2026-05-13T04:52:06Z</time>
      </trkpt>
      <trkpt lat="48.6774" lon="7.31723">
        <ele>330</ele>
        <time>2026-05-13T04:52:12Z</time>
      </trkpt>
      <trkpt lat="48.67712" lon="7.31712">
        <ele>333</ele>
        <time>2026-05-13T04:52:17Z</time>
      </trkpt>
      <trkpt lat="48.67694" lon="7.31707">
        <ele>333</ele>
        <time>2026-05-13T04:52:20Z</time>
      </trkpt>
      <trkpt lat="48.67687" lon="7.31705">
        <ele>334</ele>
        <time>2026-05-13T04:52:21Z</time>
      </trkpt>
      <trkpt lat="48.67544" lon="7.31666">
        <ele>338</ele>
        <time>2026-05-13T04:52:47Z</time>
      </trkpt>
      <trkpt lat="48.67511" lon="7.31655">
        <ele>341</ele>
        <time>2026-05-13T04:52:53Z</time>
      </trkpt>
      <trkpt lat="48.67499" lon="7.31649">
        <ele>342</ele>
        <time>2026-05-13T04:52:56Z</time>
      </trkpt>
      <trkpt lat="48.67442" lon="7.31604">
        <ele>348</ele>
        <time>2026-05-13T04:53:07Z</time>
      </trkpt>
      <trkpt lat="48.67426" lon="7.31596">
        <ele>349</ele>
        <time>2026-05-13T04:53:10Z</time>
      </trkpt>
      <trkpt lat="48.67407" lon="7.31589">
        <ele>348</ele>
        <time>2026-05-13T04:53:13Z</time>
      </trkpt>
      <trkpt lat="48.67392" lon="7.3158">
        <ele>348</ele>
        <time>2026-05-13T04:53:16Z</time>
      </trkpt>
      <trkpt lat="48.67357" lon="7.31552">
        <ele>349</ele>
        <time>2026-05-13T04:53:23Z</time>
      </trkpt>
      <trkpt lat="48.67325" lon="7.31522">
        <ele>348</ele>
        <time>2026-05-13T04:53:30Z</time>
      </trkpt>
      <trkpt lat="48.67311" lon="7.31504">
        <ele>347</ele>
        <time>2026-05-13T04:53:33Z</time>
      </trkpt>
      <trkpt lat="48.67302" lon="7.31486">
        <ele>347</ele>
        <time>2026-05-13T04:53:36Z</time>
      </trkpt>
      <trkpt lat="48.6729" lon="7.31426">
        <ele>349</ele>
        <time>2026-05-13T04:53:43Z</time>
      </trkpt>
      <trkpt lat="48.67279" lon="7.31369">
        <ele>349</ele>
        <time>2026-05-13T04:53:50Z</time>
      </trkpt>
      <trkpt lat="48.67266" lon="7.31261">
        <ele>351</ele>
        <time>2026-05-13T04:54:03Z</time>
      </trkpt>
      <trkpt lat="48.67265" lon="7.31216">
        <ele>352</ele>
        <time>2026-05-13T04:54:08Z</time>
      </trkpt>
      <trkpt lat="48.67268" lon="7.31103">
        <ele>358</ele>
        <time>2026-05-13T04:54:22Z</time>
      </trkpt>
      <trkpt lat="48.67266" lon="7.31074">
        <ele>358</ele>
        <time>2026-05-13T04:54:25Z</time>
      </trkpt>
      <trkpt lat="48.67264" lon="7.31059">
        <ele>358</ele>
        <time>2026-05-13T04:54:27Z</time>
      </trkpt>
      <trkpt lat="48.67259" lon="7.31052">
        <ele>357</ele>
        <time>2026-05-13T04:54:28Z</time>
      </trkpt>
      <trkpt lat="48.67255" lon="7.31053">
        <ele>355</ele>
        <time>2026-05-13T04:54:29Z</time>
      </trkpt>
      <trkpt lat="48.67249" lon="7.3106">
        <ele>353</ele>
        <time>2026-05-13T04:54:30Z</time>
      </trkpt>
      <trkpt lat="48.67246" lon="7.31071">
        <ele>354</ele>
        <time>2026-05-13T04:54:32Z</time>
      </trkpt>
      <trkpt lat="48.67234" lon="7.31132">
        <ele>355</ele>
        <time>2026-05-13T04:54:39Z</time>
      </trkpt>
      <trkpt lat="48.67226" lon="7.31193">
        <ele>356</ele>
        <time>2026-05-13T04:54:46Z</time>
      </trkpt>
      <trkpt lat="48.67216" lon="7.31249">
        <ele>357</ele>
        <time>2026-05-13T04:54:53Z</time>
      </trkpt>
      <trkpt lat="48.67203" lon="7.313">
        <ele>356</ele>
        <time>2026-05-13T04:55:00Z</time>
      </trkpt>
      <trkpt lat="48.67189" lon="7.31338">
        <ele>355</ele>
        <time>2026-05-13T04:55:05Z</time>
      </trkpt>
      <trkpt lat="48.67173" lon="7.31375">
        <ele>354</ele>
        <time>2026-05-13T04:55:10Z</time>
      </trkpt>
      <trkpt lat="48.67163" lon="7.31394">
        <ele>353</ele>
        <time>2026-05-13T04:55:13Z</time>
      </trkpt>
      <trkpt lat="48.67146" lon="7.31414">
        <ele>355</ele>
        <time>2026-05-13T04:55:17Z</time>
      </trkpt>
      <trkpt lat="48.67116" lon="7.31435">
        <ele>359</ele>
        <time>2026-05-13T04:55:23Z</time>
      </trkpt>
      <trkpt lat="48.67077" lon="7.31453">
        <ele>364</ele>
        <time>2026-05-13T04:55:30Z</time>
      </trkpt>
      <trkpt lat="48.67053" lon="7.31457">
        <ele>367</ele>
        <time>2026-05-13T04:55:34Z</time>
      </trkpt>
      <trkpt lat="48.67019" lon="7.31459">
        <ele>372</ele>
        <time>2026-05-13T04:55:40Z</time>
      </trkpt>
      <trkpt lat="48.66969" lon="7.31454">
        <ele>378</ele>
        <time>2026-05-13T04:55:49Z</time>
      </trkpt>
      <trkpt lat="48.66907" lon="7.31444">
        <ele>383</ele>
        <time>2026-05-13T04:56:00Z</time>
      </trkpt>
      <trkpt lat="48.6681" lon="7.31432">
        <ele>388</ele>
        <time>2026-05-13T04:56:18Z</time>
      </trkpt>
      <trkpt lat="48.66642" lon="7.31403">
        <ele>403</ele>
        <time>2026-05-13T04:56:48Z</time>
      </trkpt>
      <trkpt lat="48.66516" lon="7.31386">
        <ele>418</ele>
        <time>2026-05-13T04:57:10Z</time>
      </trkpt>
      <trkpt lat="48.66382" lon="7.31366">
        <ele>430</ele>
        <time>2026-05-13T04:57:34Z</time>
      </trkpt>
      <trkpt lat="48.6634" lon="7.31357">
        <ele>431</ele>
        <time>2026-05-13T04:57:42Z</time>
      </trkpt>
      <trkpt lat="48.6632" lon="7.31348">
        <ele>431</ele>
        <time>2026-05-13T04:57:45Z</time>
      </trkpt>
      <trkpt lat="48.66315" lon="7.31346">
        <ele>431</ele>
        <time>2026-05-13T04:57:46Z</time>
      </trkpt>
      <trkpt lat="48.66286" lon="7.31318">
        <ele>435</ele>
        <time>2026-05-13T04:57:52Z</time>
      </trkpt>
      <trkpt lat="48.66239" lon="7.31276">
        <ele>435</ele>
        <time>2026-05-13T04:58:02Z</time>
      </trkpt>
      <trkpt lat="48.66185" lon="7.31219">
        <ele>433</ele>
        <time>2026-05-13T04:58:14Z</time>
      </trkpt>
      <trkpt lat="48.66149" lon="7.31193">
        <ele>427</ele>
        <time>2026-05-13T04:58:21Z</time>
      </trkpt>
      <trkpt lat="48.66131" lon="7.31178">
        <ele>425</ele>
        <time>2026-05-13T04:58:25Z</time>
      </trkpt>
      <trkpt lat="48.66121" lon="7.31167">
        <ele>424</ele>
        <time>2026-05-13T04:58:27Z</time>
      </trkpt>
      <trkpt lat="48.66105" lon="7.31147">
        <ele>425</ele>
        <time>2026-05-13T04:58:30Z</time>
      </trkpt>
      <trkpt lat="48.66095" lon="7.31139">
        <ele>425</ele>
        <time>2026-05-13T04:58:32Z</time>
      </trkpt>
      <trkpt lat="48.66084" lon="7.31137">
        <ele>423</ele>
        <time>2026-05-13T04:58:34Z</time>
      </trkpt>
      <trkpt lat="48.66004" lon="7.31152">
        <ele>410</ele>
        <time>2026-05-13T04:58:49Z</time>
      </trkpt>
      <trkpt lat="48.65937" lon="7.31151">
        <ele>409</ele>
        <time>2026-05-13T04:59:01Z</time>
      </trkpt>
      <trkpt lat="48.65833" lon="7.31146">
        <ele>413</ele>
        <time>2026-05-13T04:59:19Z</time>
      </trkpt>
      <trkpt lat="48.65766" lon="7.31146">
        <ele>418</ele>
        <time>2026-05-13T04:59:31Z</time>
      </trkpt>
      <trkpt lat="48.65757" lon="7.3115">
        <ele>418</ele>
        <time>2026-05-13T04:59:33Z</time>
      </trkpt>
      <trkpt lat="48.65748" lon="7.31159">
        <ele>416</ele>
        <time>2026-05-13T04:59:35Z</time>
      </trkpt>
      <trkpt lat="48.6573" lon="7.312">
        <ele>409</ele>
        <time>2026-05-13T04:59:40Z</time>
      </trkpt>
      <trkpt lat="48.65722" lon="7.31208">
        <ele>408</ele>
        <time>2026-05-13T04:59:42Z</time>
      </trkpt>
      <trkpt lat="48.65714" lon="7.3121">
        <ele>408</ele>
        <time>2026-05-13T04:59:44Z</time>
      </trkpt>
      <trkpt lat="48.657" lon="7.31208">
        <ele>408</ele>
        <time>2026-05-13T04:59:46Z</time>
      </trkpt>
      <trkpt lat="48.65679" lon="7.31202">
        <ele>409</ele>
        <time>2026-05-13T04:59:50Z</time>
      </trkpt>
      <trkpt lat="48.65671" lon="7.31195">
        <ele>410</ele>
        <time>2026-05-13T04:59:52Z</time>
      </trkpt>
      <trkpt lat="48.65658" lon="7.31175">
        <ele>411</ele>
        <time>2026-05-13T04:59:55Z</time>
      </trkpt>
      <trkpt lat="48.65628" lon="7.31097">
        <ele>415</ele>
        <time>2026-05-13T05:00:05Z</time>
      </trkpt>
      <trkpt lat="48.65621" lon="7.31086">
        <ele>415</ele>
        <time>2026-05-13T05:00:07Z</time>
      </trkpt>
      <trkpt lat="48.65613" lon="7.3108">
        <ele>414</ele>
        <time>2026-05-13T05:00:09Z</time>
      </trkpt>
      <trkpt lat="48.65599" lon="7.3108">
        <ele>412</ele>
        <time>2026-05-13T05:00:11Z</time>
      </trkpt>
      <trkpt lat="48.65561" lon="7.31086">
        <ele>410</ele>
        <time>2026-05-13T05:00:18Z</time>
      </trkpt>
      <trkpt lat="48.65534" lon="7.31096">
        <ele>411</ele>
        <time>2026-05-13T05:00:23Z</time>
      </trkpt>
      <trkpt lat="48.65525" lon="7.31104">
        <ele>410</ele>
        <time>2026-05-13T05:00:25Z</time>
      </trkpt>
      <trkpt lat="48.65519" lon="7.3112">
        <ele>409</ele>
        <time>2026-05-13T05:00:27Z</time>
      </trkpt>
      <trkpt lat="48.655" lon="7.31191">
        <ele>403</ele>
        <time>2026-05-13T05:00:36Z</time>
      </trkpt>
      <trkpt lat="48.65487" lon="7.31234">
        <ele>405</ele>
        <time>2026-05-13T05:00:42Z</time>
      </trkpt>
      <trkpt lat="48.65474" lon="7.3127">
        <ele>406</ele>
        <time>2026-05-13T05:00:47Z</time>
      </trkpt>
      <trkpt lat="48.65453" lon="7.31309">
        <ele>407</ele>
        <time>2026-05-13T05:00:52Z</time>
      </trkpt>
      <trkpt lat="48.65427" lon="7.3135">
        <ele>407</ele>
        <time>2026-05-13T05:00:59Z</time>
      </trkpt>
      <trkpt lat="48.65406" lon="7.31378">
        <ele>405</ele>
        <time>2026-05-13T05:01:04Z</time>
      </trkpt>
      <trkpt lat="48.65389" lon="7.31394">
        <ele>404</ele>
        <time>2026-05-13T05:01:08Z</time>
      </trkpt>
      <trkpt lat="48.6537" lon="7.314">
        <ele>404</ele>
        <time>2026-05-13T05:01:11Z</time>
      </trkpt>
      <trkpt lat="48.6536" lon="7.31399">
        <ele>404</ele>
        <time>2026-05-13T05:01:13Z</time>
      </trkpt>
      <trkpt lat="48.65333" lon="7.31398">
        <ele>404</ele>
        <time>2026-05-13T05:01:18Z</time>
      </trkpt>
      <trkpt lat="48.65284" lon="7.31371">
        <ele>399</ele>
        <time>2026-05-13T05:01:27Z</time>
      </trkpt>
      <trkpt lat="48.65268" lon="7.31359">
        <ele>397</ele>
        <time>2026-05-13T05:01:30Z</time>
      </trkpt>
      <trkpt lat="48.65254" lon="7.31345">
        <ele>396</ele>
        <time>2026-05-13T05:01:33Z</time>
      </trkpt>
      <trkpt lat="48.6524" lon="7.31323">
        <ele>394</ele>
        <time>2026-05-13T05:01:37Z</time>
      </trkpt>
      <trkpt lat="48.65211" lon="7.31259">
        <ele>392</ele>
        <time>2026-05-13T05:01:46Z</time>
      </trkpt>
      <trkpt lat="48.65194" lon="7.31202">
        <ele>390</ele>
        <time>2026-05-13T05:01:53Z</time>
      </trkpt>
      <trkpt lat="48.65176" lon="7.31102">
        <ele>392</ele>
        <time>2026-05-13T05:02:05Z</time>
      </trkpt>
      <trkpt lat="48.65162" lon="7.3104">
        <ele>395</ele>
        <time>2026-05-13T05:02:13Z</time>
      </trkpt>
      <trkpt lat="48.65155" lon="7.31019">
        <ele>397</ele>
        <time>2026-05-13T05:02:16Z</time>
      </trkpt>
      <trkpt lat="48.65141" lon="7.30995">
        <ele>399</ele>
        <time>2026-05-13T05:02:20Z</time>
      </trkpt>
      <trkpt lat="48.65113" lon="7.30953">
        <ele>400</ele>
        <time>2026-05-13T05:02:27Z</time>
      </trkpt>
      <trkpt lat="48.65101" lon="7.30944">
        <ele>399</ele>
        <time>2026-05-13T05:02:29Z</time>
      </trkpt>
      <trkpt lat="48.65089" lon="7.30942">
        <ele>398</ele>
        <time>2026-05-13T05:02:31Z</time>
      </trkpt>
      <trkpt lat="48.65082" lon="7.30948">
        <ele>398</ele>
        <time>2026-05-13T05:02:33Z</time>
      </trkpt>
      <trkpt lat="48.65078" lon="7.30957">
        <ele>400</ele>
        <time>2026-05-13T05:02:34Z</time>
      </trkpt>
      <trkpt lat="48.65078" lon="7.30975">
        <ele>400</ele>
        <time>2026-05-13T05:02:36Z</time>
      </trkpt>
      <trkpt lat="48.65082" lon="7.31032">
        <ele>397</ele>
        <time>2026-05-13T05:02:43Z</time>
      </trkpt>
      <trkpt lat="48.65082" lon="7.31079">
        <ele>396</ele>
        <time>2026-05-13T05:02:48Z</time>
      </trkpt>
      <trkpt lat="48.65076" lon="7.31139">
        <ele>398</ele>
        <time>2026-05-13T05:02:55Z</time>
      </trkpt>
      <trkpt lat="48.6507" lon="7.31173">
        <ele>399</ele>
        <time>2026-05-13T05:03:00Z</time>
      </trkpt>
      <trkpt lat="48.6506" lon="7.31198">
        <ele>398</ele>
        <time>2026-05-13T05:03:03Z</time>
      </trkpt>
      <trkpt lat="48.65033" lon="7.31249">
        <ele>400</ele>
        <time>2026-05-13T05:03:11Z</time>
      </trkpt>
      <trkpt lat="48.64985" lon="7.31324">
        <ele>400</ele>
        <time>2026-05-13T05:03:23Z</time>
      </trkpt>
      <trkpt lat="48.64972" lon="7.31339">
        <ele>399</ele>
        <time>2026-05-13T05:03:26Z</time>
      </trkpt>
      <trkpt lat="48.64953" lon="7.31354">
        <ele>400</ele>
        <time>2026-05-13T05:03:30Z</time>
      </trkpt>
      <trkpt lat="48.64929" lon="7.31365">
        <ele>402</ele>
        <time>2026-05-13T05:03:34Z</time>
      </trkpt>
      <trkpt lat="48.64895" lon="7.31374">
        <ele>404</ele>
        <time>2026-05-13T05:03:40Z</time>
      </trkpt>
      <trkpt lat="48.6484" lon="7.3138">
        <ele>409</ele>
        <time>2026-05-13T05:03:50Z</time>
      </trkpt>
      <trkpt lat="48.64815" lon="7.3138">
        <ele>411</ele>
        <time>2026-05-13T05:03:54Z</time>
      </trkpt>
      <trkpt lat="48.6476" lon="7.31362">
        <ele>415</ele>
        <time>2026-05-13T05:04:05Z</time>
      </trkpt>
      <trkpt lat="48.64746" lon="7.31355">
        <ele>416</ele>
        <time>2026-05-13T05:04:07Z</time>
      </trkpt>
      <trkpt lat="48.64724" lon="7.31335">
        <ele>416</ele>
        <time>2026-05-13T05:04:12Z</time>
      </trkpt>
      <trkpt lat="48.64699" lon="7.31313">
        <ele>416</ele>
        <time>2026-05-13T05:04:17Z</time>
      </trkpt>
      <trkpt lat="48.64659" lon="7.31257">
        <ele>418</ele>
        <time>2026-05-13T05:04:27Z</time>
      </trkpt>
      <trkpt lat="48.64648" lon="7.3123">
        <ele>419</ele>
        <time>2026-05-13T05:04:30Z</time>
      </trkpt>
      <trkpt lat="48.64637" lon="7.31191">
        <ele>420</ele>
        <time>2026-05-13T05:04:35Z</time>
      </trkpt>
      <trkpt lat="48.64617" lon="7.31109">
        <ele>423</ele>
        <time>2026-05-13T05:04:46Z</time>
      </trkpt>
      <trkpt lat="48.64608" lon="7.31081">
        <ele>424</ele>
        <time>2026-05-13T05:04:49Z</time>
      </trkpt>
      <trkpt lat="48.64599" lon="7.31063">
        <ele>423</ele>
        <time>2026-05-13T05:04:52Z</time>
      </trkpt>
      <trkpt lat="48.64587" lon="7.31052">
        <ele>421</ele>
        <time>2026-05-13T05:04:54Z</time>
      </trkpt>
      <trkpt lat="48.64553" lon="7.31041">
        <ele>423</ele>
        <time>2026-05-13T05:05:01Z</time>
      </trkpt>
      <trkpt lat="48.64538" lon="7.31044">
        <ele>424</ele>
        <time>2026-05-13T05:05:03Z</time>
      </trkpt>
      <trkpt lat="48.64523" lon="7.31056">
        <ele>424</ele>
        <time>2026-05-13T05:05:06Z</time>
      </trkpt>
      <trkpt lat="48.64496" lon="7.31086">
        <ele>425</ele>
        <time>2026-05-13T05:05:12Z</time>
      </trkpt>
      <trkpt lat="48.64489" lon="7.31096">
        <ele>426</ele>
        <time>2026-05-13T05:05:14Z</time>
      </trkpt>
      <trkpt lat="48.64483" lon="7.31106">
        <ele>426</ele>
        <time>2026-05-13T05:05:15Z</time>
      </trkpt>
      <trkpt lat="48.64467" lon="7.31156">
        <ele>426</ele>
        <time>2026-05-13T05:05:22Z</time>
      </trkpt>
      <trkpt lat="48.64434" lon="7.31231">
        <ele>430</ele>
        <time>2026-05-13T05:05:33Z</time>
      </trkpt>
      <trkpt lat="48.64424" lon="7.31262">
        <ele>431</ele>
        <time>2026-05-13T05:05:37Z</time>
      </trkpt>
      <trkpt lat="48.64413" lon="7.31314">
        <ele>432</ele>
        <time>2026-05-13T05:05:43Z</time>
      </trkpt>
      <trkpt lat="48.64404" lon="7.31388">
        <ele>434</ele>
        <time>2026-05-13T05:05:52Z</time>
      </trkpt>
      <trkpt lat="48.64402" lon="7.31422">
        <ele>435</ele>
        <time>2026-05-13T05:05:56Z</time>
      </trkpt>
      <trkpt lat="48.64405" lon="7.31487">
        <ele>437</ele>
        <time>2026-05-13T05:06:04Z</time>
      </trkpt>
      <trkpt lat="48.64404" lon="7.3152">
        <ele>439</ele>
        <time>2026-05-13T05:06:07Z</time>
      </trkpt>
      <trkpt lat="48.644" lon="7.31549">
        <ele>441</ele>
        <time>2026-05-13T05:06:11Z</time>
      </trkpt>
      <trkpt lat="48.64395" lon="7.31578">
        <ele>443</ele>
        <time>2026-05-13T05:06:14Z</time>
      </trkpt>
      <trkpt lat="48.64372" lon="7.31663">
        <ele>447</ele>
        <time>2026-05-13T05:06:25Z</time>
      </trkpt>
      <trkpt lat="48.64353" lon="7.31727">
        <ele>449</ele>
        <time>2026-05-13T05:06:34Z</time>
      </trkpt>
      <trkpt lat="48.64328" lon="7.31798">
        <ele>452</ele>
        <time>2026-05-13T05:06:43Z</time>
      </trkpt>
      <trkpt lat="48.6432" lon="7.31812">
        <ele>453</ele>
        <time>2026-05-13T05:06:45Z</time>
      </trkpt>
      <trkpt lat="48.64313" lon="7.31817">
        <ele>454</ele>
        <time>2026-05-13T05:06:47Z</time>
      </trkpt>
      <trkpt lat="48.64324" lon="7.31869">
        <ele>453</ele>
        <time>2026-05-13T05:06:53Z</time>
      </trkpt>
      <trkpt lat="48.64331" lon="7.31907">
        <ele>452</ele>
        <time>2026-05-13T05:06:58Z</time>
      </trkpt>
      <trkpt lat="48.64333" lon="7.31932">
        <ele>451</ele>
        <time>2026-05-13T05:07:01Z</time>
      </trkpt>
      <trkpt lat="48.64331" lon="7.3201">
        <ele>445</ele>
        <time>2026-05-13T05:07:10Z</time>
      </trkpt>
      <trkpt lat="48.64325" lon="7.32275">
        <ele>432</ele>
        <time>2026-05-13T05:07:41Z</time>
      </trkpt>
      <trkpt lat="48.64322" lon="7.32314">
        <ele>431</ele>
        <time>2026-05-13T05:07:46Z</time>
      </trkpt>
      <trkpt lat="48.64317" lon="7.32344">
        <ele>430</ele>
        <time>2026-05-13T05:07:49Z</time>
      </trkpt>
      <trkpt lat="48.64259" lon="7.32597">
        <ele>422</ele>
        <time>2026-05-13T05:08:21Z</time>
      </trkpt>
      <trkpt lat="48.64234" lon="7.32706">
        <ele>415</ele>
        <time>2026-05-13T05:08:34Z</time>
      </trkpt>
      <trkpt lat="48.64224" lon="7.32767">
        <ele>411</ele>
        <time>2026-05-13T05:08:42Z</time>
      </trkpt>
      <trkpt lat="48.64209" lon="7.32904">
        <ele>407</ele>
        <time>2026-05-13T05:08:58Z</time>
      </trkpt>
      <trkpt lat="48.64204" lon="7.32953">
        <ele>406</ele>
        <time>2026-05-13T05:09:04Z</time>
      </trkpt>
      <trkpt lat="48.642" lon="7.33009">
        <ele>406</ele>
        <time>2026-05-13T05:09:10Z</time>
      </trkpt>
      <trkpt lat="48.642" lon="7.33073">
        <ele>406</ele>
        <time>2026-05-13T05:09:18Z</time>
      </trkpt>
      <trkpt lat="48.64204" lon="7.33129">
        <ele>409</ele>
        <time>2026-05-13T05:09:25Z</time>
      </trkpt>
      <trkpt lat="48.64219" lon="7.33223">
        <ele>416</ele>
        <time>2026-05-13T05:09:36Z</time>
      </trkpt>
      <trkpt lat="48.6427" lon="7.33499">
        <ele>418</ele>
        <time>2026-05-13T05:10:10Z</time>
      </trkpt>
      <trkpt lat="48.64281" lon="7.33555">
        <ele>415</ele>
        <time>2026-05-13T05:10:16Z</time>
      </trkpt>
      <trkpt lat="48.64329" lon="7.3373">
        <ele>412</ele>
        <time>2026-05-13T05:10:39Z</time>
      </trkpt>
      <trkpt lat="48.64352" lon="7.33808">
        <ele>417</ele>
        <time>2026-05-13T05:10:49Z</time>
      </trkpt>
      <trkpt lat="48.64411" lon="7.33979">
        <ele>414</ele>
        <time>2026-05-13T05:11:11Z</time>
      </trkpt>
      <trkpt lat="48.64422" lon="7.34011">
        <ele>415</ele>
        <time>2026-05-13T05:11:16Z</time>
      </trkpt>
      <trkpt lat="48.64471" lon="7.34185">
        <ele>415</ele>
        <time>2026-05-13T05:11:38Z</time>
      </trkpt>
      <trkpt lat="48.64506" lon="7.34347">
        <ele>425</ele>
        <time>2026-05-13T05:11:58Z</time>
      </trkpt>
      <trkpt lat="48.6451" lon="7.34375">
        <ele>426</ele>
        <time>2026-05-13T05:12:01Z</time>
      </trkpt>
      <trkpt lat="48.6451" lon="7.34407">
        <ele>428</ele>
        <time>2026-05-13T05:12:05Z</time>
      </trkpt>
      <trkpt lat="48.64507" lon="7.34434">
        <ele>428</ele>
        <time>2026-05-13T05:12:08Z</time>
      </trkpt>
      <trkpt lat="48.6448" lon="7.34538">
        <ele>431</ele>
        <time>2026-05-13T05:12:21Z</time>
      </trkpt>
      <trkpt lat="48.64451" lon="7.34706">
        <ele>429</ele>
        <time>2026-05-13T05:12:42Z</time>
      </trkpt>
      <trkpt lat="48.64401" lon="7.34978">
        <ele>426</ele>
        <time>2026-05-13T05:13:15Z</time>
      </trkpt>
      <trkpt lat="48.64382" lon="7.35347">
        <ele>417</ele>
        <time>2026-05-13T05:13:59Z</time>
      </trkpt>
      <trkpt lat="48.64377" lon="7.35419">
        <ele>416</ele>
        <time>2026-05-13T05:14:07Z</time>
      </trkpt>
      <trkpt lat="48.64372" lon="7.35463">
        <ele>415</ele>
        <time>2026-05-13T05:14:12Z</time>
      </trkpt>
      <trkpt lat="48.64362" lon="7.35494">
        <ele>415</ele>
        <time>2026-05-13T05:14:16Z</time>
      </trkpt>
      <trkpt lat="48.64344" lon="7.35521">
        <ele>413</ele>
        <time>2026-05-13T05:14:21Z</time>
      </trkpt>
      <trkpt lat="48.6428" lon="7.35594">
        <ele>408</ele>
        <time>2026-05-13T05:14:35Z</time>
      </trkpt>
      <trkpt lat="48.6417" lon="7.35716">
        <ele>392</ele>
        <time>2026-05-13T05:14:59Z</time>
      </trkpt>
      <trkpt lat="48.64147" lon="7.35748">
        <ele>384</ele>
        <time>2026-05-13T05:15:05Z</time>
      </trkpt>
      <trkpt lat="48.64017" lon="7.35924">
        <ele>359</ele>
        <time>2026-05-13T05:15:36Z</time>
      </trkpt>
      <trkpt lat="48.63996" lon="7.35959">
        <ele>357</ele>
        <time>2026-05-13T05:15:42Z</time>
      </trkpt>
      <trkpt lat="48.6399" lon="7.35969">
        <ele>357</ele>
        <time>2026-05-13T05:15:43Z</time>
      </trkpt>
      <trkpt lat="48.63938" lon="7.36077">
        <ele>350</ele>
        <time>2026-05-13T05:15:59Z</time>
      </trkpt>
      <trkpt lat="48.63927" lon="7.36114">
        <ele>348</ele>
        <time>2026-05-13T05:16:04Z</time>
      </trkpt>
      <trkpt lat="48.63921" lon="7.3615">
        <ele>345</ele>
        <time>2026-05-13T05:16:08Z</time>
      </trkpt>
      <trkpt lat="48.6392" lon="7.36186">
        <ele>343</ele>
        <time>2026-05-13T05:16:12Z</time>
      </trkpt>
      <trkpt lat="48.63928" lon="7.36335">
        <ele>340</ele>
        <time>2026-05-13T05:16:30Z</time>
      </trkpt>
      <trkpt lat="48.63936" lon="7.36399">
        <ele>340</ele>
        <time>2026-05-13T05:16:37Z</time>
      </trkpt>
      <trkpt lat="48.6394" lon="7.36418">
        <ele>340</ele>
        <time>2026-05-13T05:16:40Z</time>
      </trkpt>
      <trkpt lat="48.63942" lon="7.36428">
        <ele>340</ele>
        <time>2026-05-13T05:16:41Z</time>
      </trkpt>
      <trkpt lat="48.63952" lon="7.36455">
        <ele>339</ele>
        <time>2026-05-13T05:16:45Z</time>
      </trkpt>
      <trkpt lat="48.63964" lon="7.36475">
        <ele>338</ele>
        <time>2026-05-13T05:16:48Z</time>
      </trkpt>
      <trkpt lat="48.63976" lon="7.36492">
        <ele>337</ele>
        <time>2026-05-13T05:16:51Z</time>
      </trkpt>
      <trkpt lat="48.64016" lon="7.36546">
        <ele>334</ele>
        <time>2026-05-13T05:17:00Z</time>
      </trkpt>
      <trkpt lat="48.64028" lon="7.36567">
        <ele>334</ele>
        <time>2026-05-13T05:17:04Z</time>
      </trkpt>
      <trkpt lat="48.64033" lon="7.36579">
        <ele>333</ele>
        <time>2026-05-13T05:17:05Z</time>
      </trkpt>
      <trkpt lat="48.64036" lon="7.36588">
        <ele>333</ele>
        <time>2026-05-13T05:17:06Z</time>
      </trkpt>
      <trkpt lat="48.64039" lon="7.3661">
        <ele>332</ele>
        <time>2026-05-13T05:17:09Z</time>
      </trkpt>
      <trkpt lat="48.64029" lon="7.36877">
        <ele>322</ele>
        <time>2026-05-13T05:17:41Z</time>
      </trkpt>
      <trkpt lat="48.64033" lon="7.36916">
        <ele>321</ele>
        <time>2026-05-13T05:17:45Z</time>
      </trkpt>
      <trkpt lat="48.64039" lon="7.36959">
        <ele>321</ele>
        <time>2026-05-13T05:17:50Z</time>
      </trkpt>
      <trkpt lat="48.6408" lon="7.37076">
        <ele>321</ele>
        <time>2026-05-13T05:18:06Z</time>
      </trkpt>
      <trkpt lat="48.64136" lon="7.37203">
        <ele>315</ele>
        <time>2026-05-13T05:18:24Z</time>
      </trkpt>
      <trkpt lat="48.6424" lon="7.37351">
        <ele>306</ele>
        <time>2026-05-13T05:18:49Z</time>
      </trkpt>
      <trkpt lat="48.64289" lon="7.37412">
        <ele>299</ele>
        <time>2026-05-13T05:19:01Z</time>
      </trkpt>
      <trkpt lat="48.64357" lon="7.3749">
        <ele>292</ele>
        <time>2026-05-13T05:19:16Z</time>
      </trkpt>
      <trkpt lat="48.6437" lon="7.3751">
        <ele>291</ele>
        <time>2026-05-13T05:19:19Z</time>
      </trkpt>
      <trkpt lat="48.64372" lon="7.37521">
        <ele>291</ele>
        <time>2026-05-13T05:19:20Z</time>
      </trkpt>
      <trkpt lat="48.6437" lon="7.3753">
        <ele>291</ele>
        <time>2026-05-13T05:19:22Z</time>
      </trkpt>
      <trkpt lat="48.64338" lon="7.37559">
        <ele>288</ele>
        <time>2026-05-13T05:19:28Z</time>
      </trkpt>
      <trkpt lat="48.64326" lon="7.3758">
        <ele>287</ele>
        <time>2026-05-13T05:19:31Z</time>
      </trkpt>
      <trkpt lat="48.64306" lon="7.37636">
        <ele>282</ele>
        <time>2026-05-13T05:19:39Z</time>
      </trkpt>
      <trkpt lat="48.6428" lon="7.37745">
        <ele>274</ele>
        <time>2026-05-13T05:19:53Z</time>
      </trkpt>
      <trkpt lat="48.64268" lon="7.37829">
        <ele>270</ele>
        <time>2026-05-13T05:20:03Z</time>
      </trkpt>
      <trkpt lat="48.64265" lon="7.37851">
        <ele>270</ele>
        <time>2026-05-13T05:20:05Z</time>
      </trkpt>
      <trkpt lat="48.64251" lon="7.38015">
        <ele>269</ele>
        <time>2026-05-13T05:20:25Z</time>
      </trkpt>
      <trkpt lat="48.64251" lon="7.38038">
        <ele>269</ele>
        <time>2026-05-13T05:20:27Z</time>
      </trkpt>
      <trkpt lat="48.64254" lon="7.38063">
        <ele>269</ele>
        <time>2026-05-13T05:20:30Z</time>
      </trkpt>
      <trkpt lat="48.64297" lon="7.38248">
        <ele>266</ele>
        <time>2026-05-13T05:20:53Z</time>
      </trkpt>
      <trkpt lat="48.64333" lon="7.38381">
        <ele>260</ele>
        <time>2026-05-13T05:21:10Z</time>
      </trkpt>
      <trkpt lat="48.64342" lon="7.3841">
        <ele>258</ele>
        <time>2026-05-13T05:21:14Z</time>
      </trkpt>
      <trkpt lat="48.64435" lon="7.3867">
        <ele>247</ele>
        <time>2026-05-13T05:21:49Z</time>
      </trkpt>
      <trkpt lat="48.64441" lon="7.38692">
        <ele>245</ele>
        <time>2026-05-13T05:21:52Z</time>
      </trkpt>
      <trkpt lat="48.64443" lon="7.38711">
        <ele>243</ele>
        <time>2026-05-13T05:21:54Z</time>
      </trkpt>
      <trkpt lat="48.64441" lon="7.38738">
        <ele>240</ele>
        <time>2026-05-13T05:21:57Z</time>
      </trkpt>
      <trkpt lat="48.64438" lon="7.38797">
        <ele>235</ele>
        <time>2026-05-13T05:22:04Z</time>
      </trkpt>
      <trkpt lat="48.64438" lon="7.38811">
        <ele>233</ele>
        <time>2026-05-13T05:22:06Z</time>
      </trkpt>
      <trkpt lat="48.64438" lon="7.38826">
        <ele>232</ele>
        <time>2026-05-13T05:22:07Z</time>
      </trkpt>
      <trkpt lat="48.64438" lon="7.38843">
        <ele>231</ele>
        <time>2026-05-13T05:22:09Z</time>
      </trkpt>
      <trkpt lat="48.64438" lon="7.38875">
        <ele>230</ele>
        <time>2026-05-13T05:22:13Z</time>
      </trkpt>
      <trkpt lat="48.64438" lon="7.38897">
        <ele>230</ele>
        <time>2026-05-13T05:22:16Z</time>
      </trkpt>
      <trkpt lat="48.64438" lon="7.38934">
        <ele>229</ele>
        <time>2026-05-13T05:22:20Z</time>
      </trkpt>
      <trkpt lat="48.64435" lon="7.38962">
        <ele>228</ele>
        <time>2026-05-13T05:22:24Z</time>
      </trkpt>
      <trkpt lat="48.6443" lon="7.38985">
        <ele>227</ele>
        <time>2026-05-13T05:22:26Z</time>
      </trkpt>
      <trkpt lat="48.64422" lon="7.39011">
        <ele>227</ele>
        <time>2026-05-13T05:22:30Z</time>
      </trkpt>
      <trkpt lat="48.64402" lon="7.39046">
        <ele>226</ele>
        <time>2026-05-13T05:22:35Z</time>
      </trkpt>
      <trkpt lat="48.64387" lon="7.39077">
        <ele>226</ele>
        <time>2026-05-13T05:22:40Z</time>
      </trkpt>
      <trkpt lat="48.64382" lon="7.39095">
        <ele>226</ele>
        <time>2026-05-13T05:22:42Z</time>
      </trkpt>
      <trkpt lat="48.64379" lon="7.39116">
        <ele>226</ele>
        <time>2026-05-13T05:22:45Z</time>
      </trkpt>
      <trkpt lat="48.64379" lon="7.39151">
        <ele>226</ele>
        <time>2026-05-13T05:22:49Z</time>
      </trkpt>
      <trkpt lat="48.64384" lon="7.39185">
        <ele>226</ele>
        <time>2026-05-13T05:22:53Z</time>
      </trkpt>
      <trkpt lat="48.64389" lon="7.3921">
        <ele>227</ele>
        <time>2026-05-13T05:22:56Z</time>
      </trkpt>
      <trkpt lat="48.64402" lon="7.39265">
        <ele>227</ele>
        <time>2026-05-13T05:23:03Z</time>
      </trkpt>
      <trkpt lat="48.64403" lon="7.39283">
        <ele>227</ele>
        <time>2026-05-13T05:23:05Z</time>
      </trkpt>
      <trkpt lat="48.64401" lon="7.39294">
        <ele>226</ele>
        <time>2026-05-13T05:23:06Z</time>
      </trkpt>
      <trkpt lat="48.64426" lon="7.39309">
        <ele>226</ele>
        <time>2026-05-13T05:23:11Z</time>
      </trkpt>
      <trkpt lat="48.64453" lon="7.39318">
        <ele>225</ele>
        <time>2026-05-13T05:23:16Z</time>
      </trkpt>
      <trkpt lat="48.64504" lon="7.39335">
        <ele>223</ele>
        <time>2026-05-13T05:23:25Z</time>
      </trkpt>
      <trkpt lat="48.64589" lon="7.39368">
        <ele>224</ele>
        <time>2026-05-13T05:23:41Z</time>
      </trkpt>
      <trkpt lat="48.64595" lon="7.3937">
        <ele>225</ele>
        <time>2026-05-13T05:23:42Z</time>
      </trkpt>
      <trkpt lat="48.64608" lon="7.39374">
        <ele>225</ele>
        <time>2026-05-13T05:23:44Z</time>
      </trkpt>
      <trkpt lat="48.64622" lon="7.39374">
        <ele>226</ele>
        <time>2026-05-13T05:23:47Z</time>
      </trkpt>
      <trkpt lat="48.64646" lon="7.39368">
        <ele>227</ele>
        <time>2026-05-13T05:23:51Z</time>
      </trkpt>
      <trkpt lat="48.6466" lon="7.39362">
        <ele>228</ele>
        <time>2026-05-13T05:23:54Z</time>
      </trkpt>
      <trkpt lat="48.64671" lon="7.39356">
        <ele>228</ele>
        <time>2026-05-13T05:23:56Z</time>
      </trkpt>
      <trkpt lat="48.64682" lon="7.39344">
        <ele>230</ele>
        <time>2026-05-13T05:23:58Z</time>
      </trkpt>
      <trkpt lat="48.64697" lon="7.3932">
        <ele>230</ele>
        <time>2026-05-13T05:24:02Z</time>
      </trkpt>
      <trkpt lat="48.64724" lon="7.39261">
        <ele>230</ele>
        <time>2026-05-13T05:24:10Z</time>
      </trkpt>
      <trkpt lat="48.64763" lon="7.39142">
        <ele>228</ele>
        <time>2026-05-13T05:24:26Z</time>
      </trkpt>
      <trkpt lat="48.64777" lon="7.39112">
        <ele>228</ele>
        <time>2026-05-13T05:24:30Z</time>
      </trkpt>
      <trkpt lat="48.6487" lon="7.38968">
        <ele>231</ele>
        <time>2026-05-13T05:24:54Z</time>
      </trkpt>
      <trkpt lat="48.64905" lon="7.38895">
        <ele>233</ele>
        <time>2026-05-13T05:25:05Z</time>
      </trkpt>
      <trkpt lat="48.64921" lon="7.3882">
        <ele>238</ele>
        <time>2026-05-13T05:25:14Z</time>
      </trkpt>
      <trkpt lat="48.6493" lon="7.38744">
        <ele>242</ele>
        <time>2026-05-13T05:25:23Z</time>
      </trkpt>
      <trkpt lat="48.64941" lon="7.38693">
        <ele>244</ele>
        <time>2026-05-13T05:25:29Z</time>
      </trkpt>
      <trkpt lat="48.6495" lon="7.38663">
        <ele>244</ele>
        <time>2026-05-13T05:25:33Z</time>
      </trkpt>
      <trkpt lat="48.64965" lon="7.38631">
        <ele>245</ele>
        <time>2026-05-13T05:25:38Z</time>
      </trkpt>
      <trkpt lat="48.64994" lon="7.38592">
        <ele>247</ele>
        <time>2026-05-13T05:25:45Z</time>
      </trkpt>
      <trkpt lat="48.65053" lon="7.38499">
        <ele>246</ele>
        <time>2026-05-13T05:26:00Z</time>
      </trkpt>
      <trkpt lat="48.65062" lon="7.38489">
        <ele>246</ele>
        <time>2026-05-13T05:26:02Z</time>
      </trkpt>
      <trkpt lat="48.65089" lon="7.38474">
        <ele>245</ele>
        <time>2026-05-13T05:26:07Z</time>
      </trkpt>
      <trkpt lat="48.65138" lon="7.38453">
        <ele>243</ele>
        <time>2026-05-13T05:26:16Z</time>
      </trkpt>
      <trkpt lat="48.65155" lon="7.38441">
        <ele>242</ele>
        <time>2026-05-13T05:26:19Z</time>
      </trkpt>
      <trkpt lat="48.6517" lon="7.38425">
        <ele>241</ele>
        <time>2026-05-13T05:26:23Z</time>
      </trkpt>
      <trkpt lat="48.65178" lon="7.38402">
        <ele>241</ele>
        <time>2026-05-13T05:26:26Z</time>
      </trkpt>
      <trkpt lat="48.65197" lon="7.38333">
        <ele>241</ele>
        <time>2026-05-13T05:26:34Z</time>
      </trkpt>
      <trkpt lat="48.65225" lon="7.38242">
        <ele>241</ele>
        <time>2026-05-13T05:26:46Z</time>
      </trkpt>
      <trkpt lat="48.6526" lon="7.38143">
        <ele>239</ele>
        <time>2026-05-13T05:26:59Z</time>
      </trkpt>
      <trkpt lat="48.65274" lon="7.38113">
        <ele>239</ele>
        <time>2026-05-13T05:27:04Z</time>
      </trkpt>
      <trkpt lat="48.65334" lon="7.37997">
        <ele>237</ele>
        <time>2026-05-13T05:27:21Z</time>
      </trkpt>
      <trkpt lat="48.65353" lon="7.37968">
        <ele>237</ele>
        <time>2026-05-13T05:27:26Z</time>
      </trkpt>
      <trkpt lat="48.6537" lon="7.37945">
        <ele>238</ele>
        <time>2026-05-13T05:27:30Z</time>
      </trkpt>
      <trkpt lat="48.65392" lon="7.37923">
        <ele>238</ele>
        <time>2026-05-13T05:27:35Z</time>
      </trkpt>
      <trkpt lat="48.65432" lon="7.37894">
        <ele>240</ele>
        <time>2026-05-13T05:27:42Z</time>
      </trkpt>
      <trkpt lat="48.65441" lon="7.3789">
        <ele>240</ele>
        <time>2026-05-13T05:27:44Z</time>
      </trkpt>
      <trkpt lat="48.65473" lon="7.37886">
        <ele>242</ele>
        <time>2026-05-13T05:27:50Z</time>
      </trkpt>
      <trkpt lat="48.65487" lon="7.37879">
        <ele>243</ele>
        <time>2026-05-13T05:27:53Z</time>
      </trkpt>
      <trkpt lat="48.65537" lon="7.3782">
        <ele>244</ele>
        <time>2026-05-13T05:28:04Z</time>
      </trkpt>
      <trkpt lat="48.65573" lon="7.37777">
        <ele>245</ele>
        <time>2026-05-13T05:28:12Z</time>
      </trkpt>
      <trkpt lat="48.6558" lon="7.37772">
        <ele>245</ele>
        <time>2026-05-13T05:28:13Z</time>
      </trkpt>
      <trkpt lat="48.65588" lon="7.3777">
        <ele>246</ele>
        <time>2026-05-13T05:28:15Z</time>
      </trkpt>
      <trkpt lat="48.65613" lon="7.37758">
        <ele>246</ele>
        <time>2026-05-13T05:28:19Z</time>
      </trkpt>
      <trkpt lat="48.65656" lon="7.37708">
        <ele>246</ele>
        <time>2026-05-13T05:28:29Z</time>
      </trkpt>
      <trkpt lat="48.65702" lon="7.37637">
        <ele>247</ele>
        <time>2026-05-13T05:28:41Z</time>
      </trkpt>
      <trkpt lat="48.65723" lon="7.37607">
        <ele>247</ele>
        <time>2026-05-13T05:28:46Z</time>
      </trkpt>
      <trkpt lat="48.65744" lon="7.3758">
        <ele>247</ele>
        <time>2026-05-13T05:28:51Z</time>
      </trkpt>
      <trkpt lat="48.65824" lon="7.37484">
        <ele>248</ele>
        <time>2026-05-13T05:29:09Z</time>
      </trkpt>
      <trkpt lat="48.65847" lon="7.37451">
        <ele>249</ele>
        <time>2026-05-13T05:29:15Z</time>
      </trkpt>
      <trkpt lat="48.65885" lon="7.37385">
        <ele>252</ele>
        <time>2026-05-13T05:29:25Z</time>
      </trkpt>
      <trkpt lat="48.65909" lon="7.37339">
        <ele>251</ele>
        <time>2026-05-13T05:29:32Z</time>
      </trkpt>
      <trkpt lat="48.65926" lon="7.37315">
        <ele>252</ele>
        <time>2026-05-13T05:29:36Z</time>
      </trkpt>
      <trkpt lat="48.65944" lon="7.37297">
        <ele>252</ele>
        <time>2026-05-13T05:29:40Z</time>
      </trkpt>
      <trkpt lat="48.6597" lon="7.37281">
        <ele>252</ele>
        <time>2026-05-13T05:29:45Z</time>
      </trkpt>
      <trkpt lat="48.66033" lon="7.3725">
        <ele>252</ele>
        <time>2026-05-13T05:29:57Z</time>
      </trkpt>
      <trkpt lat="48.66085" lon="7.37221">
        <ele>255</ele>
        <time>2026-05-13T05:30:06Z</time>
      </trkpt>
      <trkpt lat="48.66181" lon="7.3713">
        <ele>257</ele>
        <time>2026-05-13T05:30:27Z</time>
      </trkpt>
      <trkpt lat="48.66203" lon="7.3711">
        <ele>258</ele>
        <time>2026-05-13T05:30:31Z</time>
      </trkpt>
      <trkpt lat="48.66226" lon="7.37097">
        <ele>258</ele>
        <time>2026-05-13T05:30:35Z</time>
      </trkpt>
      <trkpt lat="48.66316" lon="7.37065">
        <ele>261</ele>
        <time>2026-05-13T05:30:52Z</time>
      </trkpt>
      <trkpt lat="48.66337" lon="7.37062">
        <ele>262</ele>
        <time>2026-05-13T05:30:56Z</time>
      </trkpt>
      <trkpt lat="48.66372" lon="7.37062">
        <ele>264</ele>
        <time>2026-05-13T05:31:02Z</time>
      </trkpt>
      <trkpt lat="48.6646" lon="7.37083">
        <ele>269</ele>
        <time>2026-05-13T05:31:18Z</time>
      </trkpt>
      <trkpt lat="48.66524" lon="7.37105">
        <ele>274</ele>
        <time>2026-05-13T05:31:29Z</time>
      </trkpt>
      <trkpt lat="48.66536" lon="7.37107">
        <ele>275</ele>
        <time>2026-05-13T05:31:32Z</time>
      </trkpt>
      <trkpt lat="48.66548" lon="7.37108">
        <ele>276</ele>
        <time>2026-05-13T05:31:34Z</time>
      </trkpt>
      <trkpt lat="48.66577" lon="7.37106">
        <ele>277</ele>
        <time>2026-05-13T05:31:39Z</time>
      </trkpt>
      <trkpt lat="48.66616" lon="7.37101">
        <ele>279</ele>
        <time>2026-05-13T05:31:46Z</time>
      </trkpt>
      <trkpt lat="48.66666" lon="7.37093">
        <ele>283</ele>
        <time>2026-05-13T05:31:55Z</time>
      </trkpt>
      <trkpt lat="48.66673" lon="7.37084">
        <ele>283</ele>
        <time>2026-05-13T05:31:56Z</time>
      </trkpt>
      <trkpt lat="48.66685" lon="7.37059">
        <ele>282</ele>
        <time>2026-05-13T05:32:00Z</time>
      </trkpt>
      <trkpt lat="48.66693" lon="7.37042">
        <ele>282</ele>
        <time>2026-05-13T05:32:03Z</time>
      </trkpt>
      <trkpt lat="48.66699" lon="7.37037">
        <ele>282</ele>
        <time>2026-05-13T05:32:04Z</time>
      </trkpt>
      <trkpt lat="48.66704" lon="7.37037">
        <ele>282</ele>
        <time>2026-05-13T05:32:05Z</time>
      </trkpt>
      <trkpt lat="48.66738" lon="7.37044">
        <ele>283</ele>
        <time>2026-05-13T05:32:11Z</time>
      </trkpt>
      <trkpt lat="48.66755" lon="7.37051">
        <ele>284</ele>
        <time>2026-05-13T05:32:14Z</time>
      </trkpt>
      <trkpt lat="48.66779" lon="7.37064">
        <ele>285</ele>
        <time>2026-05-13T05:32:18Z</time>
      </trkpt>
      <trkpt lat="48.66907" lon="7.3712">
        <ele>295</ele>
        <time>2026-05-13T05:32:42Z</time>
      </trkpt>
      <trkpt lat="48.66961" lon="7.37145">
        <ele>299</ele>
        <time>2026-05-13T05:32:52Z</time>
      </trkpt>
      <trkpt lat="48.6697" lon="7.37149">
        <ele>299</ele>
        <time>2026-05-13T05:32:54Z</time>
      </trkpt>
      <trkpt lat="48.66975" lon="7.37153">
        <ele>300</ele>
        <time>2026-05-13T05:32:55Z</time>
      </trkpt>
      <trkpt lat="48.66978" lon="7.37158">
        <ele>300</ele>
        <time>2026-05-13T05:32:56Z</time>
      </trkpt>
      <trkpt lat="48.66991" lon="7.37148">
        <ele>300</ele>
        <time>2026-05-13T05:32:58Z</time>
      </trkpt>
      <trkpt lat="48.66998" lon="7.37136">
        <ele>301</ele>
        <time>2026-05-13T05:33:00Z</time>
      </trkpt>
      <trkpt lat="48.67002" lon="7.37122">
        <ele>301</ele>
        <time>2026-05-13T05:33:02Z</time>
      </trkpt>
      <trkpt lat="48.67005" lon="7.37102">
        <ele>301</ele>
        <time>2026-05-13T05:33:04Z</time>
      </trkpt>
      <trkpt lat="48.67005" lon="7.37078">
        <ele>301</ele>
        <time>2026-05-13T05:33:07Z</time>
      </trkpt>
      <trkpt lat="48.67" lon="7.37005">
        <ele>304</ele>
        <time>2026-05-13T05:33:16Z</time>
      </trkpt>
      <trkpt lat="48.67" lon="7.36982">
        <ele>305</ele>
        <time>2026-05-13T05:33:18Z</time>
      </trkpt>
      <trkpt lat="48.67001" lon="7.36956">
        <ele>306</ele>
        <time>2026-05-13T05:33:22Z</time>
      </trkpt>
      <trkpt lat="48.67003" lon="7.36932">
        <ele>307</ele>
        <time>2026-05-13T05:33:24Z</time>
      </trkpt>
      <trkpt lat="48.67021" lon="7.36832">
        <ele>308</ele>
        <time>2026-05-13T05:33:37Z</time>
      </trkpt>
      <trkpt lat="48.67033" lon="7.3675">
        <ele>308</ele>
        <time>2026-05-13T05:33:46Z</time>
      </trkpt>
      <trkpt lat="48.67036" lon="7.36719">
        <ele>308</ele>
        <time>2026-05-13T05:33:50Z</time>
      </trkpt>
      <trkpt lat="48.67036" lon="7.36695">
        <ele>307</ele>
        <time>2026-05-13T05:33:53Z</time>
      </trkpt>
      <trkpt lat="48.67034" lon="7.36679">
        <ele>307</ele>
        <time>2026-05-13T05:33:55Z</time>
      </trkpt>
      <trkpt lat="48.67029" lon="7.36662">
        <ele>307</ele>
        <time>2026-05-13T05:33:57Z</time>
      </trkpt>
      <trkpt lat="48.67019" lon="7.3664">
        <ele>307</ele>
        <time>2026-05-13T05:34:00Z</time>
      </trkpt>
      <trkpt lat="48.66995" lon="7.366">
        <ele>307</ele>
        <time>2026-05-13T05:34:06Z</time>
      </trkpt>
      <trkpt lat="48.66963" lon="7.36551">
        <ele>306</ele>
        <time>2026-05-13T05:34:15Z</time>
      </trkpt>
      <trkpt lat="48.66935" lon="7.36502">
        <ele>306</ele>
        <time>2026-05-13T05:34:22Z</time>
      </trkpt>
      <trkpt lat="48.66924" lon="7.36477">
        <ele>305</ele>
        <time>2026-05-13T05:34:26Z</time>
      </trkpt>
      <trkpt lat="48.66914" lon="7.36447">
        <ele>304</ele>
        <time>2026-05-13T05:34:30Z</time>
      </trkpt>
      <trkpt lat="48.66909" lon="7.36422">
        <ele>303</ele>
        <time>2026-05-13T05:34:33Z</time>
      </trkpt>
      <trkpt lat="48.66905" lon="7.36396">
        <ele>301</ele>
        <time>2026-05-13T05:34:36Z</time>
      </trkpt>
      <trkpt lat="48.66882" lon="7.3609">
        <ele>295</ele>
        <time>2026-05-13T05:35:12Z</time>
      </trkpt>
      <trkpt lat="48.66884" lon="7.36052">
        <ele>295</ele>
        <time>2026-05-13T05:35:17Z</time>
      </trkpt>
      <trkpt lat="48.66887" lon="7.36008">
        <ele>296</ele>
        <time>2026-05-13T05:35:22Z</time>
      </trkpt>
      <trkpt lat="48.66892" lon="7.35935">
        <ele>296</ele>
        <time>2026-05-13T05:35:30Z</time>
      </trkpt>
      <trkpt lat="48.66892" lon="7.35917">
        <ele>296</ele>
        <time>2026-05-13T05:35:32Z</time>
      </trkpt>
      <trkpt lat="48.6689" lon="7.35824">
        <ele>299</ele>
        <time>2026-05-13T05:35:43Z</time>
      </trkpt>
      <trkpt lat="48.66881" lon="7.35634">
        <ele>302</ele>
        <time>2026-05-13T05:36:06Z</time>
      </trkpt>
      <trkpt lat="48.66885" lon="7.35613">
        <ele>302</ele>
        <time>2026-05-13T05:36:08Z</time>
      </trkpt>
      <trkpt lat="48.66908" lon="7.35632">
        <ele>303</ele>
        <time>2026-05-13T05:36:13Z</time>
      </trkpt>
      <trkpt lat="48.66937" lon="7.35652">
        <ele>304</ele>
        <time>2026-05-13T05:36:19Z</time>
      </trkpt>
      <trkpt lat="48.66957" lon="7.35663">
        <ele>304</ele>
        <time>2026-05-13T05:36:23Z</time>
      </trkpt>
      <trkpt lat="48.67105" lon="7.35731">
        <ele>306</ele>
        <time>2026-05-13T05:36:50Z</time>
      </trkpt>
      <trkpt lat="48.67116" lon="7.35733">
        <ele>306</ele>
        <time>2026-05-13T05:36:52Z</time>
      </trkpt>
      <trkpt lat="48.67192" lon="7.35713">
        <ele>305</ele>
        <time>2026-05-13T05:37:06Z</time>
      </trkpt>
      <trkpt lat="48.67216" lon="7.35708">
        <ele>305</ele>
        <time>2026-05-13T05:37:10Z</time>
      </trkpt>
      <trkpt lat="48.67212" lon="7.35672">
        <ele>306</ele>
        <time>2026-05-13T05:37:14Z</time>
      </trkpt>
      <trkpt lat="48.67172" lon="7.35539">
        <ele>309</ele>
        <time>2026-05-13T05:37:31Z</time>
      </trkpt>
      <trkpt lat="48.67167" lon="7.35506">
        <ele>310</ele>
        <time>2026-05-13T05:37:35Z</time>
      </trkpt>
      <trkpt lat="48.67156" lon="7.35426">
        <ele>310</ele>
        <time>2026-05-13T05:37:45Z</time>
      </trkpt>
      <trkpt lat="48.67146" lon="7.35344">
        <ele>308</ele>
        <time>2026-05-13T05:37:55Z</time>
      </trkpt>
      <trkpt lat="48.67133" lon="7.35247">
        <ele>306</ele>
        <time>2026-05-13T05:38:06Z</time>
      </trkpt>
      <trkpt lat="48.67124" lon="7.35193">
        <ele>306</ele>
        <time>2026-05-13T05:38:13Z</time>
      </trkpt>
      <trkpt lat="48.67085" lon="7.35005">
        <ele>305</ele>
        <time>2026-05-13T05:38:36Z</time>
      </trkpt>
      <trkpt lat="48.67058" lon="7.34854">
        <ele>305</ele>
        <time>2026-05-13T05:38:55Z</time>
      </trkpt>
      <trkpt lat="48.67012" lon="7.347">
        <ele>315</ele>
        <time>2026-05-13T05:39:14Z</time>
      </trkpt>
      <trkpt lat="48.66999" lon="7.34661">
        <ele>319</ele>
        <time>2026-05-13T05:39:20Z</time>
      </trkpt>
      <trkpt lat="48.66961" lon="7.34588">
        <ele>322</ele>
        <time>2026-05-13T05:39:30Z</time>
      </trkpt>
      <trkpt lat="48.66894" lon="7.34467">
        <ele>319</ele>
        <time>2026-05-13T05:39:49Z</time>
      </trkpt>
      <trkpt lat="48.66869" lon="7.34413">
        <ele>316</ele>
        <time>2026-05-13T05:39:57Z</time>
      </trkpt>
      <trkpt lat="48.6682" lon="7.3429">
        <ele>310</ele>
        <time>2026-05-13T05:40:14Z</time>
      </trkpt>
      <trkpt lat="48.66801" lon="7.34241">
        <ele>308</ele>
        <time>2026-05-13T05:40:20Z</time>
      </trkpt>
      <trkpt lat="48.66786" lon="7.3419">
        <ele>304</ele>
        <time>2026-05-13T05:40:27Z</time>
      </trkpt>
      <trkpt lat="48.66773" lon="7.34131">
        <ele>299</ele>
        <time>2026-05-13T05:40:34Z</time>
      </trkpt>
      <trkpt lat="48.66752" lon="7.34067">
        <ele>293</ele>
        <time>2026-05-13T05:40:43Z</time>
      </trkpt>
      <trkpt lat="48.66748" lon="7.34048">
        <ele>293</ele>
        <time>2026-05-13T05:40:45Z</time>
      </trkpt>
      <trkpt lat="48.66746" lon="7.34029">
        <ele>292</ele>
        <time>2026-05-13T05:40:47Z</time>
      </trkpt>
      <trkpt lat="48.66746" lon="7.34023">
        <ele>292</ele>
        <time>2026-05-13T05:40:48Z</time>
      </trkpt>
      <trkpt lat="48.66746" lon="7.33974">
        <ele>291</ele>
        <time>2026-05-13T05:40:54Z</time>
      </trkpt>
      <trkpt lat="48.66745" lon="7.33946">
        <ele>291</ele>
        <time>2026-05-13T05:40:57Z</time>
      </trkpt>
      <trkpt lat="48.66735" lon="7.33884">
        <ele>289</ele>
        <time>2026-05-13T05:41:04Z</time>
      </trkpt>
      <trkpt lat="48.66735" lon="7.33861">
        <ele>289</ele>
        <time>2026-05-13T05:41:07Z</time>
      </trkpt>
      <trkpt lat="48.6674" lon="7.33828">
        <ele>289</ele>
        <time>2026-05-13T05:41:11Z</time>
      </trkpt>
      <trkpt lat="48.66742" lon="7.33802">
        <ele>289</ele>
        <time>2026-05-13T05:41:14Z</time>
      </trkpt>
      <trkpt lat="48.6674" lon="7.33783">
        <ele>289</ele>
        <time>2026-05-13T05:41:16Z</time>
      </trkpt>
      <trkpt lat="48.66735" lon="7.33765">
        <ele>289</ele>
        <time>2026-05-13T05:41:19Z</time>
      </trkpt>
      <trkpt lat="48.66723" lon="7.33736">
        <ele>290</ele>
        <time>2026-05-13T05:41:23Z</time>
      </trkpt>
      <trkpt lat="48.66714" lon="7.33708">
        <ele>290</ele>
        <time>2026-05-13T05:41:26Z</time>
      </trkpt>
      <trkpt lat="48.66704" lon="7.33665">
        <ele>291</ele>
        <time>2026-05-13T05:41:32Z</time>
      </trkpt>
      <trkpt lat="48.66682" lon="7.33556">
        <ele>290</ele>
        <time>2026-05-13T05:41:45Z</time>
      </trkpt>
      <trkpt lat="48.66681" lon="7.33544">
        <ele>289</ele>
        <time>2026-05-13T05:41:47Z</time>
      </trkpt>
      <trkpt lat="48.66682" lon="7.33533">
        <ele>289</ele>
        <time>2026-05-13T05:41:48Z</time>
      </trkpt>
      <trkpt lat="48.66686" lon="7.33525">
        <ele>289</ele>
        <time>2026-05-13T05:41:49Z</time>
      </trkpt>
      <trkpt lat="48.66692" lon="7.33516">
        <ele>288</ele>
        <time>2026-05-13T05:41:51Z</time>
      </trkpt>
      <trkpt lat="48.66729" lon="7.33491">
        <ele>287</ele>
        <time>2026-05-13T05:41:58Z</time>
      </trkpt>
      <trkpt lat="48.66734" lon="7.33487">
        <ele>288</ele>
        <time>2026-05-13T05:41:59Z</time>
      </trkpt>
      <trkpt lat="48.6675" lon="7.33465">
        <ele>288</ele>
        <time>2026-05-13T05:42:03Z</time>
      </trkpt>
      <trkpt lat="48.66753" lon="7.33451">
        <ele>288</ele>
        <time>2026-05-13T05:42:04Z</time>
      </trkpt>
      <trkpt lat="48.66744" lon="7.33413">
        <ele>289</ele>
        <time>2026-05-13T05:42:09Z</time>
      </trkpt>
      <trkpt lat="48.66723" lon="7.33333">
        <ele>291</ele>
        <time>2026-05-13T05:42:19Z</time>
      </trkpt>
      <trkpt lat="48.66726" lon="7.3333">
        <ele>291</ele>
        <time>2026-05-13T05:42:20Z</time>
      </trkpt>
      <trkpt lat="48.66727" lon="7.33324">
        <ele>291</ele>
        <time>2026-05-13T05:42:21Z</time>
      </trkpt>
      <trkpt lat="48.66789" lon="7.33299">
        <ele>289</ele>
        <time>2026-05-13T05:42:32Z</time>
      </trkpt>
      <trkpt lat="48.6679" lon="7.33299">
        <ele>289</ele>
        <time>2026-05-13T05:42:32Z</time>
      </trkpt>
      <trkpt lat="48.66797" lon="7.33295">
        <ele>289</ele>
        <time>2026-05-13T05:42:34Z</time>
      </trkpt>
      <trkpt lat="48.66915" lon="7.33242">
        <ele>289</ele>
        <time>2026-05-13T05:42:55Z</time>
      </trkpt>
      <trkpt lat="48.66976" lon="7.33212">
        <ele>291</ele>
        <time>2026-05-13T05:43:07Z</time>
      </trkpt>
      <trkpt lat="48.67035" lon="7.33181">
        <ele>293</ele>
        <time>2026-05-13T05:43:18Z</time>
      </trkpt>
      <trkpt lat="48.67222" lon="7.33091">
        <ele>298</ele>
        <time>2026-05-13T05:43:53Z</time>
      </trkpt>
      <trkpt lat="48.67227" lon="7.33082">
        <ele>298</ele>
        <time>2026-05-13T05:43:54Z</time>
      </trkpt>
      <trkpt lat="48.67228" lon="7.33071">
        <ele>298</ele>
        <time>2026-05-13T05:43:56Z</time>
      </trkpt>
      <trkpt lat="48.67221" lon="7.33017">
        <ele>299</ele>
        <time>2026-05-13T05:44:02Z</time>
      </trkpt>
      <trkpt lat="48.67199" lon="7.32874">
        <ele>301</ele>
        <time>2026-05-13T05:44:19Z</time>
      </trkpt>
      <trkpt lat="48.67192" lon="7.32811">
        <ele>303</ele>
        <time>2026-05-13T05:44:27Z</time>
      </trkpt>
      <trkpt lat="48.67184" lon="7.32699">
        <ele>305</ele>
        <time>2026-05-13T05:44:40Z</time>
      </trkpt>
      <trkpt lat="48.67184" lon="7.32669">
        <ele>305</ele>
        <time>2026-05-13T05:44:44Z</time>
      </trkpt>
      <trkpt lat="48.67188" lon="7.32635">
        <ele>306</ele>
        <time>2026-05-13T05:44:48Z</time>
      </trkpt>
      <trkpt lat="48.67196" lon="7.32587">
        <ele>308</ele>
        <time>2026-05-13T05:44:53Z</time>
      </trkpt>
      <trkpt lat="48.67227" lon="7.32451">
        <ele>314</ele>
        <time>2026-05-13T05:45:10Z</time>
      </trkpt>
      <trkpt lat="48.67235" lon="7.32399">
        <ele>315</ele>
        <time>2026-05-13T05:45:17Z</time>
      </trkpt>
      <trkpt lat="48.6724" lon="7.32361">
        <ele>316</ele>
        <time>2026-05-13T05:45:21Z</time>
      </trkpt>
      <trkpt lat="48.67242" lon="7.32324">
        <ele>316</ele>
        <time>2026-05-13T05:45:26Z</time>
      </trkpt>
      <trkpt lat="48.6725" lon="7.32221">
        <ele>314</ele>
        <time>2026-05-13T05:45:38Z</time>
      </trkpt>
      <trkpt lat="48.67251" lon="7.3216">
        <ele>315</ele>
        <time>2026-05-13T05:45:45Z</time>
      </trkpt>
      <trkpt lat="48.67253" lon="7.32132">
        <ele>315</ele>
        <time>2026-05-13T05:45:48Z</time>
      </trkpt>
      <trkpt lat="48.67258" lon="7.32118">
        <ele>315</ele>
        <time>2026-05-13T05:45:50Z</time>
      </trkpt>
      <trkpt lat="48.67265" lon="7.32113">
        <ele>316</ele>
        <time>2026-05-13T05:45:51Z</time>
      </trkpt>
      <trkpt lat="48.67286" lon="7.32113">
        <ele>315</ele>
        <time>2026-05-13T05:45:55Z</time>
      </trkpt>
      <trkpt lat="48.67297" lon="7.32111">
        <ele>315</ele>
        <time>2026-05-13T05:45:57Z</time>
      </trkpt>
      <trkpt lat="48.67303" lon="7.32106">
        <ele>315</ele>
        <time>2026-05-13T05:45:58Z</time>
      </trkpt>
      <trkpt lat="48.67307" lon="7.32101">
        <ele>316</ele>
        <time>2026-05-13T05:45:59Z</time>
      </trkpt>
      <trkpt lat="48.67322" lon="7.32079">
        <ele>317</ele>
        <time>2026-05-13T05:46:03Z</time>
      </trkpt>
      <trkpt lat="48.67337" lon="7.32043">
        <ele>319</ele>
        <time>2026-05-13T05:46:08Z</time>
      </trkpt>
      <trkpt lat="48.67357" lon="7.31982">
        <ele>321</ele>
        <time>2026-05-13T05:46:16Z</time>
      </trkpt>
      <trkpt lat="48.67372" lon="7.31946">
        <ele>322</ele>
        <time>2026-05-13T05:46:21Z</time>
      </trkpt>
      <trkpt lat="48.67377" lon="7.31924">
        <ele>323</ele>
        <time>2026-05-13T05:46:24Z</time>
      </trkpt>
      <trkpt lat="48.67385" lon="7.31872">
        <ele>325</ele>
        <time>2026-05-13T05:46:30Z</time>
      </trkpt>
      <trkpt lat="48.67391" lon="7.31815">
        <ele>327</ele>
        <time>2026-05-13T05:46:37Z</time>
      </trkpt>
      <trkpt lat="48.67394" lon="7.31767">
        <ele>329</ele>
        <time>2026-05-13T05:46:42Z</time>
      </trkpt>
      <trkpt lat="48.67404" lon="7.31601">
        <ele>347</ele>
        <time>2026-05-13T05:47:02Z</time>
      </trkpt>
      <trkpt lat="48.67407" lon="7.31589">
        <ele>348</ele>
        <time>2026-05-13T05:47:04Z</time>
      </trkpt>
      <trkpt lat="48.67392" lon="7.3158">
        <ele>348</ele>
        <time>2026-05-13T05:47:06Z</time>
      </trkpt>
      <trkpt lat="48.67357" lon="7.31552">
        <ele>349</ele>
        <time>2026-05-13T05:47:13Z</time>
      </trkpt>
      <trkpt lat="48.67325" lon="7.31522">
        <ele>348</ele>
        <time>2026-05-13T05:47:20Z</time>
      </trkpt>
      <trkpt lat="48.67311" lon="7.31504">
        <ele>347</ele>
        <time>2026-05-13T05:47:23Z</time>
      </trkpt>
      <trkpt lat="48.67302" lon="7.31486">
        <ele>347</ele>
        <time>2026-05-13T05:47:26Z</time>
      </trkpt>
      <trkpt lat="48.6729" lon="7.31426">
        <ele>349</ele>
        <time>2026-05-13T05:47:33Z</time>
      </trkpt>
      <trkpt lat="48.67279" lon="7.31369">
        <ele>349</ele>
        <time>2026-05-13T05:47:40Z</time>
      </trkpt>
      <trkpt lat="48.67266" lon="7.31261">
        <ele>351</ele>
        <time>2026-05-13T05:47:53Z</time>
      </trkpt>
      <trkpt lat="48.67265" lon="7.31216">
        <ele>352</ele>
        <time>2026-05-13T05:47:59Z</time>
      </trkpt>
      <trkpt lat="48.67268" lon="7.31103">
        <ele>358</ele>
        <time>2026-05-13T05:48:12Z</time>
      </trkpt>
      <trkpt lat="48.67266" lon="7.31074">
        <ele>358</ele>
        <time>2026-05-13T05:48:15Z</time>
      </trkpt>
      <trkpt lat="48.67264" lon="7.31059">
        <ele>358</ele>
        <time>2026-05-13T05:48:17Z</time>
      </trkpt>
      <trkpt lat="48.67259" lon="7.31052">
        <ele>357</ele>
        <time>2026-05-13T05:48:18Z</time>
      </trkpt>
      <trkpt lat="48.67259" lon="7.3103">
        <ele>358</ele>
        <time>2026-05-13T05:48:21Z</time>
      </trkpt>
      <trkpt lat="48.67255" lon="7.3101">
        <ele>357</ele>
        <time>2026-05-13T05:48:23Z</time>
      </trkpt>
      <trkpt lat="48.67245" lon="7.3098">
        <ele>358</ele>
        <time>2026-05-13T05:48:27Z</time>
      </trkpt>
      <trkpt lat="48.67232" lon="7.30942">
        <ele>364</ele>
        <time>2026-05-13T05:48:32Z</time>
      </trkpt>
      <trkpt lat="48.672" lon="7.30841">
        <ele>371</ele>
        <time>2026-05-13T05:48:46Z</time>
      </trkpt>
      <trkpt lat="48.67191" lon="7.30805">
        <ele>371</ele>
        <time>2026-05-13T05:48:50Z</time>
      </trkpt>
      <trkpt lat="48.67175" lon="7.30672">
        <ele>371</ele>
        <time>2026-05-13T05:49:06Z</time>
      </trkpt>
      <trkpt lat="48.6717" lon="7.30648">
        <ele>371</ele>
        <time>2026-05-13T05:49:09Z</time>
      </trkpt>
      <trkpt lat="48.67148" lon="7.30592">
        <ele>375</ele>
        <time>2026-05-13T05:49:17Z</time>
      </trkpt>
      <trkpt lat="48.67125" lon="7.30537">
        <ele>377</ele>
        <time>2026-05-13T05:49:24Z</time>
      </trkpt>
      <trkpt lat="48.67081" lon="7.30466">
        <ele>375</ele>
        <time>2026-05-13T05:49:36Z</time>
      </trkpt>
      <trkpt lat="48.66932" lon="7.30239">
        <ele>386</ele>
        <time>2026-05-13T05:50:13Z</time>
      </trkpt>
      <trkpt lat="48.66924" lon="7.30214">
        <ele>384</ele>
        <time>2026-05-13T05:50:17Z</time>
      </trkpt>
      <trkpt lat="48.66923" lon="7.30201">
        <ele>384</ele>
        <time>2026-05-13T05:50:18Z</time>
      </trkpt>
      <trkpt lat="48.66925" lon="7.30189">
        <ele>384</ele>
        <time>2026-05-13T05:50:20Z</time>
      </trkpt>
      <trkpt lat="48.66932" lon="7.30178">
        <ele>386</ele>
        <time>2026-05-13T05:50:21Z</time>
      </trkpt>
      <trkpt lat="48.66939" lon="7.30174">
        <ele>388</ele>
        <time>2026-05-13T05:50:23Z</time>
      </trkpt>
      <trkpt lat="48.66947" lon="7.30176">
        <ele>390</ele>
        <time>2026-05-13T05:50:24Z</time>
      </trkpt>
      <trkpt lat="48.66955" lon="7.30184">
        <ele>391</ele>
        <time>2026-05-13T05:50:26Z</time>
      </trkpt>
      <trkpt lat="48.66988" lon="7.30232">
        <ele>393</ele>
        <time>2026-05-13T05:50:34Z</time>
      </trkpt>
      <trkpt lat="48.67045" lon="7.30308">
        <ele>395</ele>
        <time>2026-05-13T05:50:47Z</time>
      </trkpt>
      <trkpt lat="48.67084" lon="7.30347">
        <ele>395</ele>
        <time>2026-05-13T05:50:56Z</time>
      </trkpt>
      <trkpt lat="48.67117" lon="7.30381">
        <ele>396</ele>
        <time>2026-05-13T05:51:03Z</time>
      </trkpt>
      <trkpt lat="48.67135" lon="7.30395">
        <ele>397</ele>
        <time>2026-05-13T05:51:06Z</time>
      </trkpt>
      <trkpt lat="48.67157" lon="7.30407">
        <ele>399</ele>
        <time>2026-05-13T05:51:11Z</time>
      </trkpt>
      <trkpt lat="48.67195" lon="7.30425">
        <ele>405</ele>
        <time>2026-05-13T05:51:18Z</time>
      </trkpt>
      <trkpt lat="48.67202" lon="7.30434">
        <ele>406</ele>
        <time>2026-05-13T05:51:19Z</time>
      </trkpt>
      <trkpt lat="48.67206" lon="7.30449">
        <ele>405</ele>
        <time>2026-05-13T05:51:21Z</time>
      </trkpt>
      <trkpt lat="48.67217" lon="7.30523">
        <ele>401</ele>
        <time>2026-05-13T05:51:30Z</time>
      </trkpt>
      <trkpt lat="48.67224" lon="7.3056">
        <ele>401</ele>
        <time>2026-05-13T05:51:35Z</time>
      </trkpt>
      <trkpt lat="48.67242" lon="7.30634">
        <ele>402</ele>
        <time>2026-05-13T05:51:44Z</time>
      </trkpt>
      <trkpt lat="48.6725" lon="7.30659">
        <ele>404</ele>
        <time>2026-05-13T05:51:47Z</time>
      </trkpt>
      <trkpt lat="48.673" lon="7.30792">
        <ele>410</ele>
        <time>2026-05-13T05:52:05Z</time>
      </trkpt>
      <trkpt lat="48.67313" lon="7.30825">
        <ele>409</ele>
        <time>2026-05-13T05:52:10Z</time>
      </trkpt>
      <trkpt lat="48.67328" lon="7.30855">
        <ele>411</ele>
        <time>2026-05-13T05:52:14Z</time>
      </trkpt>
      <trkpt lat="48.67362" lon="7.30904">
        <ele>420</ele>
        <time>2026-05-13T05:52:22Z</time>
      </trkpt>
      <trkpt lat="48.67377" lon="7.30929">
        <ele>424</ele>
        <time>2026-05-13T05:52:26Z</time>
      </trkpt>
      <trkpt lat="48.67385" lon="7.30949">
        <ele>426</ele>
        <time>2026-05-13T05:52:29Z</time>
      </trkpt>
      <trkpt lat="48.67391" lon="7.3097">
        <ele>427</ele>
        <time>2026-05-13T05:52:32Z</time>
      </trkpt>
      <trkpt lat="48.67394" lon="7.30998">
        <ele>425</ele>
        <time>2026-05-13T05:52:35Z</time>
      </trkpt>
      <trkpt lat="48.67397" lon="7.31077">
        <ele>422</ele>
        <time>2026-05-13T05:52:45Z</time>
      </trkpt>
      <trkpt lat="48.67404" lon="7.31133">
        <ele>423</ele>
        <time>2026-05-13T05:52:51Z</time>
      </trkpt>
      <trkpt lat="48.67409" lon="7.3117">
        <ele>423</ele>
        <time>2026-05-13T05:52:56Z</time>
      </trkpt>
      <trkpt lat="48.67418" lon="7.31224">
        <ele>423</ele>
        <time>2026-05-13T05:53:02Z</time>
      </trkpt>
      <trkpt lat="48.67433" lon="7.31273">
        <ele>426</ele>
        <time>2026-05-13T05:53:09Z</time>
      </trkpt>
      <trkpt lat="48.67446" lon="7.31304">
        <ele>427</ele>
        <time>2026-05-13T05:53:13Z</time>
      </trkpt>
      <trkpt lat="48.67457" lon="7.31327">
        <ele>427</ele>
        <time>2026-05-13T05:53:16Z</time>
      </trkpt>
      <trkpt lat="48.67489" lon="7.31367">
        <ele>430</ele>
        <time>2026-05-13T05:53:24Z</time>
      </trkpt>
      <trkpt lat="48.67504" lon="7.31377">
        <ele>432</ele>
        <time>2026-05-13T05:53:26Z</time>
      </trkpt>
      <trkpt lat="48.67527" lon="7.31385">
        <ele>434</ele>
        <time>2026-05-13T05:53:31Z</time>
      </trkpt>
      <trkpt lat="48.67557" lon="7.31394">
        <ele>436</ele>
        <time>2026-05-13T05:53:36Z</time>
      </trkpt>
      <trkpt lat="48.67579" lon="7.31396">
        <ele>440</ele>
        <time>2026-05-13T05:53:40Z</time>
      </trkpt>
      <trkpt lat="48.6763" lon="7.31393">
        <ele>442</ele>
        <time>2026-05-13T05:53:49Z</time>
      </trkpt>
      <trkpt lat="48.67647" lon="7.31388">
        <ele>444</ele>
        <time>2026-05-13T05:53:52Z</time>
      </trkpt>
      <trkpt lat="48.67658" lon="7.31381">
        <ele>448</ele>
        <time>2026-05-13T05:53:54Z</time>
      </trkpt>
      <trkpt lat="48.67674" lon="7.31365">
        <ele>456</ele>
        <time>2026-05-13T05:53:58Z</time>
      </trkpt>
      <trkpt lat="48.67687" lon="7.31359">
        <ele>458</ele>
        <time>2026-05-13T05:54:00Z</time>
      </trkpt>
      <trkpt lat="48.67701" lon="7.31357">
        <ele>458</ele>
        <time>2026-05-13T05:54:03Z</time>
      </trkpt>
      <trkpt lat="48.67721" lon="7.31358">
        <ele>456</ele>
        <time>2026-05-13T05:54:06Z</time>
      </trkpt>
      <trkpt lat="48.67752" lon="7.31355">
        <ele>456</ele>
        <time>2026-05-13T05:54:12Z</time>
      </trkpt>
      <trkpt lat="48.67834" lon="7.31318">
        <ele>464</ele>
        <time>2026-05-13T05:54:27Z</time>
      </trkpt>
      <trkpt lat="48.67857" lon="7.3131">
        <ele>469</ele>
        <time>2026-05-13T05:54:31Z</time>
      </trkpt>
      <trkpt lat="48.67876" lon="7.31308">
        <ele>471</ele>
        <time>2026-05-13T05:54:35Z</time>
      </trkpt>
      <trkpt lat="48.67895" lon="7.31318">
        <ele>470</ele>
        <time>2026-05-13T05:54:38Z</time>
      </trkpt>
      <trkpt lat="48.67912" lon="7.3133">
        <ele>468</ele>
        <time>2026-05-13T05:54:41Z</time>
      </trkpt>
      <trkpt lat="48.67931" lon="7.31351">
        <ele>464</ele>
        <time>2026-05-13T05:54:46Z</time>
      </trkpt>
      <trkpt lat="48.6795" lon="7.31373">
        <ele>461</ele>
        <time>2026-05-13T05:54:50Z</time>
      </trkpt>
      <trkpt lat="48.67967" lon="7.31384">
        <ele>461</ele>
        <time>2026-05-13T05:54:53Z</time>
      </trkpt>
      <trkpt lat="48.67977" lon="7.31386">
        <ele>462</ele>
        <time>2026-05-13T05:54:55Z</time>
      </trkpt>
      <trkpt lat="48.6799" lon="7.31385">
        <ele>466</ele>
        <time>2026-05-13T05:54:57Z</time>
      </trkpt>
      <trkpt lat="48.681" lon="7.31323">
        <ele>473</ele>
        <time>2026-05-13T05:55:18Z</time>
      </trkpt>
      <trkpt lat="48.68111" lon="7.31314">
        <ele>473</ele>
        <time>2026-05-13T05:55:20Z</time>
      </trkpt>
      <trkpt lat="48.68118" lon="7.31304">
        <ele>474</ele>
        <time>2026-05-13T05:55:22Z</time>
      </trkpt>
      <trkpt lat="48.68124" lon="7.3129">
        <ele>474</ele>
        <time>2026-05-13T05:55:24Z</time>
      </trkpt>
      <trkpt lat="48.68129" lon="7.31275">
        <ele>475</ele>
        <time>2026-05-13T05:55:26Z</time>
      </trkpt>
      <trkpt lat="48.68132" lon="7.31256">
        <ele>477</ele>
        <time>2026-05-13T05:55:28Z</time>
      </trkpt>
      <trkpt lat="48.68134" lon="7.31238">
        <ele>477</ele>
        <time>2026-05-13T05:55:31Z</time>
      </trkpt>
      <trkpt lat="48.68134" lon="7.31221">
        <ele>478</ele>
        <time>2026-05-13T05:55:33Z</time>
      </trkpt>
      <trkpt lat="48.68129" lon="7.31172">
        <ele>480</ele>
        <time>2026-05-13T05:55:38Z</time>
      </trkpt>
      <trkpt lat="48.6813" lon="7.31157">
        <ele>480</ele>
        <time>2026-05-13T05:55:40Z</time>
      </trkpt>
      <trkpt lat="48.68139" lon="7.31173">
        <ele>478</ele>
        <time>2026-05-13T05:55:43Z</time>
      </trkpt>
      <trkpt lat="48.68161" lon="7.31225">
        <ele>474</ele>
        <time>2026-05-13T05:55:50Z</time>
      </trkpt>
      <trkpt lat="48.68218" lon="7.31347">
        <ele>472</ele>
        <time>2026-05-13T05:56:07Z</time>
      </trkpt>
      <trkpt lat="48.6823" lon="7.31366">
        <ele>472</ele>
        <time>2026-05-13T05:56:10Z</time>
      </trkpt>
      <trkpt lat="48.68246" lon="7.31383">
        <ele>473</ele>
        <time>2026-05-13T05:56:14Z</time>
      </trkpt>
      <trkpt lat="48.68349" lon="7.31469">
        <ele>474</ele>
        <time>2026-05-13T05:56:35Z</time>
      </trkpt>
      <trkpt lat="48.6844" lon="7.31536">
        <ele>469</ele>
        <time>2026-05-13T05:56:53Z</time>
      </trkpt>
      <trkpt lat="48.68478" lon="7.31559">
        <ele>466</ele>
        <time>2026-05-13T05:57:00Z</time>
      </trkpt>
      <trkpt lat="48.68523" lon="7.31571">
        <ele>464</ele>
        <time>2026-05-13T05:57:08Z</time>
      </trkpt>
      <trkpt lat="48.68544" lon="7.31572">
        <ele>463</ele>
        <time>2026-05-13T05:57:12Z</time>
      </trkpt>
      <trkpt lat="48.68557" lon="7.31577">
        <ele>462</ele>
        <time>2026-05-13T05:57:14Z</time>
      </trkpt>
      <trkpt lat="48.68567" lon="7.31585">
        <ele>461</ele>
        <time>2026-05-13T05:57:16Z</time>
      </trkpt>
      <trkpt lat="48.68578" lon="7.31596">
        <ele>459</ele>
        <time>2026-05-13T05:57:19Z</time>
      </trkpt>
      <trkpt lat="48.68608" lon="7.3163">
        <ele>457</ele>
        <time>2026-05-13T05:57:25Z</time>
      </trkpt>
      <trkpt lat="48.68614" lon="7.31638">
        <ele>457</ele>
        <time>2026-05-13T05:57:27Z</time>
      </trkpt>
      <trkpt lat="48.68622" lon="7.31649">
        <ele>457</ele>
        <time>2026-05-13T05:57:29Z</time>
      </trkpt>
      <trkpt lat="48.68649" lon="7.31696">
        <ele>456</ele>
        <time>2026-05-13T05:57:36Z</time>
      </trkpt>
      <trkpt lat="48.68657" lon="7.31714">
        <ele>456</ele>
        <time>2026-05-13T05:57:39Z</time>
      </trkpt>
      <trkpt lat="48.68664" lon="7.31733">
        <ele>456</ele>
        <time>2026-05-13T05:57:41Z</time>
      </trkpt>
      <trkpt lat="48.68679" lon="7.31806">
        <ele>452</ele>
        <time>2026-05-13T05:57:50Z</time>
      </trkpt>
      <trkpt lat="48.68699" lon="7.31862">
        <ele>451</ele>
        <time>2026-05-13T05:57:58Z</time>
      </trkpt>
      <trkpt lat="48.68708" lon="7.31882">
        <ele>451</ele>
        <time>2026-05-13T05:58:01Z</time>
      </trkpt>
      <trkpt lat="48.68718" lon="7.319">
        <ele>450</ele>
        <time>2026-05-13T05:58:03Z</time>
      </trkpt>
      <trkpt lat="48.68769" lon="7.31983">
        <ele>446</ele>
        <time>2026-05-13T05:58:17Z</time>
      </trkpt>
      <trkpt lat="48.68822" lon="7.32067">
        <ele>440</ele>
        <time>2026-05-13T05:58:30Z</time>
      </trkpt>
      <trkpt lat="48.68877" lon="7.32152">
        <ele>435</ele>
        <time>2026-05-13T05:58:44Z</time>
      </trkpt>
      <trkpt lat="48.68931" lon="7.32228">
        <ele>431</ele>
        <time>2026-05-13T05:58:57Z</time>
      </trkpt>
      <trkpt lat="48.6915" lon="7.32444">
        <ele>416</ele>
        <time>2026-05-13T05:59:44Z</time>
      </trkpt>
      <trkpt lat="48.69197" lon="7.32521">
        <ele>409</ele>
        <time>2026-05-13T05:59:56Z</time>
      </trkpt>
      <trkpt lat="48.69243" lon="7.32588">
        <ele>404</ele>
        <time>2026-05-13T06:00:08Z</time>
      </trkpt>
      <trkpt lat="48.6927" lon="7.3261">
        <ele>403</ele>
        <time>2026-05-13T06:00:13Z</time>
      </trkpt>
      <trkpt lat="48.69314" lon="7.32636">
        <ele>401</ele>
        <time>2026-05-13T06:00:21Z</time>
      </trkpt>
      <trkpt lat="48.69386" lon="7.32669">
        <ele>397</ele>
        <time>2026-05-13T06:00:35Z</time>
      </trkpt>
      <trkpt lat="48.69463" lon="7.32669">
        <ele>396</ele>
        <time>2026-05-13T06:00:48Z</time>
      </trkpt>
      <trkpt lat="48.69487" lon="7.32667">
        <ele>395</ele>
        <time>2026-05-13T06:00:53Z</time>
      </trkpt>
      <trkpt lat="48.69548" lon="7.32656">
        <ele>393</ele>
        <time>2026-05-13T06:01:04Z</time>
      </trkpt>
      <trkpt lat="48.69591" lon="7.32651">
        <ele>391</ele>
        <time>2026-05-13T06:01:11Z</time>
      </trkpt>
      <trkpt lat="48.69596" lon="7.3265">
        <ele>391</ele>
        <time>2026-05-13T06:01:12Z</time>
      </trkpt>
      <trkpt lat="48.69612" lon="7.32647">
        <ele>390</ele>
        <time>2026-05-13T06:01:15Z</time>
      </trkpt>
      <trkpt lat="48.69636" lon="7.32641">
        <ele>389</ele>
        <time>2026-05-13T06:01:19Z</time>
      </trkpt>
      <trkpt lat="48.69642" lon="7.32641">
        <ele>389</ele>
        <time>2026-05-13T06:01:20Z</time>
      </trkpt>
      <trkpt lat="48.6965" lon="7.32643">
        <ele>388</ele>
        <time>2026-05-13T06:01:22Z</time>
      </trkpt>
      <trkpt lat="48.69659" lon="7.3265">
        <ele>388</ele>
        <time>2026-05-13T06:01:24Z</time>
      </trkpt>
      <trkpt lat="48.69665" lon="7.32658">
        <ele>388</ele>
        <time>2026-05-13T06:01:25Z</time>
      </trkpt>
      <trkpt lat="48.69668" lon="7.32667">
        <ele>388</ele>
        <time>2026-05-13T06:01:26Z</time>
      </trkpt>
      <trkpt lat="48.69671" lon="7.3269">
        <ele>388</ele>
        <time>2026-05-13T06:01:29Z</time>
      </trkpt>
      <trkpt lat="48.69673" lon="7.32711">
        <ele>388</ele>
        <time>2026-05-13T06:01:32Z</time>
      </trkpt>
      <trkpt lat="48.69678" lon="7.32733">
        <ele>388</ele>
        <time>2026-05-13T06:01:34Z</time>
      </trkpt>
      <trkpt lat="48.6969" lon="7.32771">
        <ele>390</ele>
        <time>2026-05-13T06:01:39Z</time>
      </trkpt>
      <trkpt lat="48.69698" lon="7.3279">
        <ele>392</ele>
        <time>2026-05-13T06:01:42Z</time>
      </trkpt>
      <trkpt lat="48.69708" lon="7.32814">
        <ele>394</ele>
        <time>2026-05-13T06:01:45Z</time>
      </trkpt>
      <trkpt lat="48.69731" lon="7.32858">
        <ele>396</ele>
        <time>2026-05-13T06:01:52Z</time>
      </trkpt>
      <trkpt lat="48.69765" lon="7.32918">
        <ele>397</ele>
        <time>2026-05-13T06:02:01Z</time>
      </trkpt>
      <trkpt lat="48.69786" lon="7.32945">
        <ele>398</ele>
        <time>2026-05-13T06:02:06Z</time>
      </trkpt>
      <trkpt lat="48.69825" lon="7.32985">
        <ele>399</ele>
        <time>2026-05-13T06:02:14Z</time>
      </trkpt>
      <trkpt lat="48.69871" lon="7.33013">
        <ele>400</ele>
        <time>2026-05-13T06:02:23Z</time>
      </trkpt>
      <trkpt lat="48.69905" lon="7.33025">
        <ele>401</ele>
        <time>2026-05-13T06:02:29Z</time>
      </trkpt>
      <trkpt lat="48.69936" lon="7.33024">
        <ele>403</ele>
        <time>2026-05-13T06:02:35Z</time>
      </trkpt>
      <trkpt lat="48.69987" lon="7.33029">
        <ele>400</ele>
        <time>2026-05-13T06:02:44Z</time>
      </trkpt>
      <trkpt lat="48.70015" lon="7.33023">
        <ele>401</ele>
        <time>2026-05-13T06:02:49Z</time>
      </trkpt>
      <trkpt lat="48.70035" lon="7.33013">
        <ele>403</ele>
        <time>2026-05-13T06:02:53Z</time>
      </trkpt>
      <trkpt lat="48.70084" lon="7.32998">
        <ele>407</ele>
        <time>2026-05-13T06:03:02Z</time>
      </trkpt>
      <trkpt lat="48.70153" lon="7.32982">
        <ele>409</ele>
        <time>2026-05-13T06:03:14Z</time>
      </trkpt>
      <trkpt lat="48.70332" lon="7.32958">
        <ele>422</ele>
        <time>2026-05-13T06:03:46Z</time>
      </trkpt>
      <trkpt lat="48.70358" lon="7.32966">
        <ele>421</ele>
        <time>2026-05-13T06:03:51Z</time>
      </trkpt>
      <trkpt lat="48.70409" lon="7.32977">
        <ele>422</ele>
        <time>2026-05-13T06:04:00Z</time>
      </trkpt>
      <trkpt lat="48.70433" lon="7.32981">
        <ele>424</ele>
        <time>2026-05-13T06:04:04Z</time>
      </trkpt>
      <trkpt lat="48.70467" lon="7.32995">
        <ele>423</ele>
        <time>2026-05-13T06:04:11Z</time>
      </trkpt>
      <trkpt lat="48.70518" lon="7.3301">
        <ele>422</ele>
        <time>2026-05-13T06:04:20Z</time>
      </trkpt>
      <trkpt lat="48.70561" lon="7.33021">
        <ele>422</ele>
        <time>2026-05-13T06:04:28Z</time>
      </trkpt>
      <trkpt lat="48.70609" lon="7.33031">
        <ele>425</ele>
        <time>2026-05-13T06:04:36Z</time>
      </trkpt>
      <trkpt lat="48.70632" lon="7.3304">
        <ele>426</ele>
        <time>2026-05-13T06:04:40Z</time>
      </trkpt>
      <trkpt lat="48.70649" lon="7.33051">
        <ele>425</ele>
        <time>2026-05-13T06:04:44Z</time>
      </trkpt>
      <trkpt lat="48.70725" lon="7.33134">
        <ele>421</ele>
        <time>2026-05-13T06:05:00Z</time>
      </trkpt>
      <trkpt lat="48.70757" lon="7.33164">
        <ele>424</ele>
        <time>2026-05-13T06:05:07Z</time>
      </trkpt>
      <trkpt lat="48.70794" lon="7.33188">
        <ele>427</ele>
        <time>2026-05-13T06:05:14Z</time>
      </trkpt>
      <trkpt lat="48.70827" lon="7.33205">
        <ele>430</ele>
        <time>2026-05-13T06:05:20Z</time>
      </trkpt>
      <trkpt lat="48.70868" lon="7.33228">
        <ele>428</ele>
        <time>2026-05-13T06:05:28Z</time>
      </trkpt>
      <trkpt lat="48.70898" lon="7.33237">
        <ele>428</ele>
        <time>2026-05-13T06:05:34Z</time>
      </trkpt>
      <trkpt lat="48.70931" lon="7.33242">
        <ele>428</ele>
        <time>2026-05-13T06:05:40Z</time>
      </trkpt>
      <trkpt lat="48.70986" lon="7.33254">
        <ele>426</ele>
        <time>2026-05-13T06:05:49Z</time>
      </trkpt>
      <trkpt lat="48.71006" lon="7.33255">
        <ele>426</ele>
        <time>2026-05-13T06:05:53Z</time>
      </trkpt>
      <trkpt lat="48.71043" lon="7.33241">
        <ele>428</ele>
        <time>2026-05-13T06:06:00Z</time>
      </trkpt>
      <trkpt lat="48.71096" lon="7.33206">
        <ele>431</ele>
        <time>2026-05-13T06:06:10Z</time>
      </trkpt>
      <trkpt lat="48.7116" lon="7.33166">
        <ele>432</ele>
        <time>2026-05-13T06:06:22Z</time>
      </trkpt>
      <trkpt lat="48.71235" lon="7.33118">
        <ele>432</ele>
        <time>2026-05-13T06:06:37Z</time>
      </trkpt>
      <trkpt lat="48.71257" lon="7.33111">
        <ele>431</ele>
        <time>2026-05-13T06:06:41Z</time>
      </trkpt>
      <trkpt lat="48.71317" lon="7.33113">
        <ele>432</ele>
        <time>2026-05-13T06:06:52Z</time>
      </trkpt>
      <trkpt lat="48.71391" lon="7.33085">
        <ele>431</ele>
        <time>2026-05-13T06:07:05Z</time>
      </trkpt>
      <trkpt lat="48.71424" lon="7.33074">
        <ele>431</ele>
        <time>2026-05-13T06:07:11Z</time>
      </trkpt>
      <trkpt lat="48.71458" lon="7.33069">
        <ele>430</ele>
        <time>2026-05-13T06:07:17Z</time>
      </trkpt>
      <trkpt lat="48.71489" lon="7.33067">
        <ele>429</ele>
        <time>2026-05-13T06:07:23Z</time>
      </trkpt>
      <trkpt lat="48.71541" lon="7.33073">
        <ele>428</ele>
        <time>2026-05-13T06:07:32Z</time>
      </trkpt>
      <trkpt lat="48.7156" lon="7.33079">
        <ele>429</ele>
        <time>2026-05-13T06:07:35Z</time>
      </trkpt>
      <trkpt lat="48.71594" lon="7.33093">
        <ele>429</ele>
        <time>2026-05-13T06:07:42Z</time>
      </trkpt>
      <trkpt lat="48.71622" lon="7.33109">
        <ele>431</ele>
        <time>2026-05-13T06:07:47Z</time>
      </trkpt>
      <trkpt lat="48.71636" lon="7.33115">
        <ele>431</ele>
        <time>2026-05-13T06:07:50Z</time>
      </trkpt>
      <trkpt lat="48.71647" lon="7.33115">
        <ele>430</ele>
        <time>2026-05-13T06:07:52Z</time>
      </trkpt>
      <trkpt lat="48.7166" lon="7.3311">
        <ele>428</ele>
        <time>2026-05-13T06:07:54Z</time>
      </trkpt>
      <trkpt lat="48.71679" lon="7.33093">
        <ele>425</ele>
        <time>2026-05-13T06:07:58Z</time>
      </trkpt>
      <trkpt lat="48.71697" lon="7.33074">
        <ele>424</ele>
        <time>2026-05-13T06:08:02Z</time>
      </trkpt>
      <trkpt lat="48.71732" lon="7.33042">
        <ele>422</ele>
        <time>2026-05-13T06:08:09Z</time>
      </trkpt>
      <trkpt lat="48.71773" lon="7.33017">
        <ele>422</ele>
        <time>2026-05-13T06:08:17Z</time>
      </trkpt>
      <trkpt lat="48.71793" lon="7.33007">
        <ele>422</ele>
        <time>2026-05-13T06:08:21Z</time>
      </trkpt>
      <trkpt lat="48.71818" lon="7.32998">
        <ele>422</ele>
        <time>2026-05-13T06:08:25Z</time>
      </trkpt>
      <trkpt lat="48.71857" lon="7.32977">
        <ele>420</ele>
        <time>2026-05-13T06:08:33Z</time>
      </trkpt>
      <trkpt lat="48.7189" lon="7.32957">
        <ele>417</ele>
        <time>2026-05-13T06:08:39Z</time>
      </trkpt>
      <trkpt lat="48.71909" lon="7.32946">
        <ele>416</ele>
        <time>2026-05-13T06:08:43Z</time>
      </trkpt>
      <trkpt lat="48.71929" lon="7.32944">
        <ele>415</ele>
        <time>2026-05-13T06:08:46Z</time>
      </trkpt>
      <trkpt lat="48.7196" lon="7.32947">
        <ele>413</ele>
        <time>2026-05-13T06:08:52Z</time>
      </trkpt>
      <trkpt lat="48.71967" lon="7.32948">
        <ele>413</ele>
        <time>2026-05-13T06:08:53Z</time>
      </trkpt>
      <trkpt lat="48.71982" lon="7.32958">
        <ele>413</ele>
        <time>2026-05-13T06:08:56Z</time>
      </trkpt>
      <trkpt lat="48.72004" lon="7.32987">
        <ele>413</ele>
        <time>2026-05-13T06:09:01Z</time>
      </trkpt>
      <trkpt lat="48.72009" lon="7.33">
        <ele>412</ele>
        <time>2026-05-13T06:09:03Z</time>
      </trkpt>
      <trkpt lat="48.72013" lon="7.32999">
        <ele>410</ele>
        <time>2026-05-13T06:09:04Z</time>
      </trkpt>
      <trkpt lat="48.72019" lon="7.33008">
        <ele>408</ele>
        <time>2026-05-13T06:09:05Z</time>
      </trkpt>
      <trkpt lat="48.72024" lon="7.33032">
        <ele>407</ele>
        <time>2026-05-13T06:09:08Z</time>
      </trkpt>
      <trkpt lat="48.72027" lon="7.33056">
        <ele>407</ele>
        <time>2026-05-13T06:09:11Z</time>
      </trkpt>
      <trkpt lat="48.72029" lon="7.33082">
        <ele>408</ele>
        <time>2026-05-13T06:09:14Z</time>
      </trkpt>
      <trkpt lat="48.72029" lon="7.33149">
        <ele>412</ele>
        <time>2026-05-13T06:09:22Z</time>
      </trkpt>
      <trkpt lat="48.72031" lon="7.33179">
        <ele>414</ele>
        <time>2026-05-13T06:09:25Z</time>
      </trkpt>
      <trkpt lat="48.72037" lon="7.33217">
        <ele>415</ele>
        <time>2026-05-13T06:09:30Z</time>
      </trkpt>
      <trkpt lat="48.72048" lon="7.33239">
        <ele>412</ele>
        <time>2026-05-13T06:09:33Z</time>
      </trkpt>
      <trkpt lat="48.72068" lon="7.33268">
        <ele>406</ele>
        <time>2026-05-13T06:09:38Z</time>
      </trkpt>
      <trkpt lat="48.72103" lon="7.33314">
        <ele>400</ele>
        <time>2026-05-13T06:09:46Z</time>
      </trkpt>
      <trkpt lat="48.72148" lon="7.33364">
        <ele>399</ele>
        <time>2026-05-13T06:09:56Z</time>
      </trkpt>
      <trkpt lat="48.72205" lon="7.33394">
        <ele>395</ele>
        <time>2026-05-13T06:10:07Z</time>
      </trkpt>
      <trkpt lat="48.72231" lon="7.33396">
        <ele>391</ele>
        <time>2026-05-13T06:10:12Z</time>
      </trkpt>
      <trkpt lat="48.72283" lon="7.33405">
        <ele>384</ele>
        <time>2026-05-13T06:10:21Z</time>
      </trkpt>
      <trkpt lat="48.72332" lon="7.33433">
        <ele>382</ele>
        <time>2026-05-13T06:10:30Z</time>
      </trkpt>
      <trkpt lat="48.72394" lon="7.33489">
        <ele>381</ele>
        <time>2026-05-13T06:10:43Z</time>
      </trkpt>
      <trkpt lat="48.72448" lon="7.33527">
        <ele>379</ele>
        <time>2026-05-13T06:10:54Z</time>
      </trkpt>
      <trkpt lat="48.7253" lon="7.33573">
        <ele>368</ele>
        <time>2026-05-13T06:11:09Z</time>
      </trkpt>
      <trkpt lat="48.72594" lon="7.33625">
        <ele>362</ele>
        <time>2026-05-13T06:11:22Z</time>
      </trkpt>
      <trkpt lat="48.72658" lon="7.33682">
        <ele>353</ele>
        <time>2026-05-13T06:11:35Z</time>
      </trkpt>
      <trkpt lat="48.72705" lon="7.33741">
        <ele>351</ele>
        <time>2026-05-13T06:11:46Z</time>
      </trkpt>
      <trkpt lat="48.72754" lon="7.3381">
        <ele>346</ele>
        <time>2026-05-13T06:11:58Z</time>
      </trkpt>
      <trkpt lat="48.72797" lon="7.33904">
        <ele>344</ele>
        <time>2026-05-13T06:12:12Z</time>
      </trkpt>
      <trkpt lat="48.72856" lon="7.3406">
        <ele>334</ele>
        <time>2026-05-13T06:12:33Z</time>
      </trkpt>
      <trkpt lat="48.72899" lon="7.34156">
        <ele>324</ele>
        <time>2026-05-13T06:12:46Z</time>
      </trkpt>
      <trkpt lat="48.72949" lon="7.34232">
        <ele>321</ele>
        <time>2026-05-13T06:12:59Z</time>
      </trkpt>
      <trkpt lat="48.72987" lon="7.34278">
        <ele>317</ele>
        <time>2026-05-13T06:13:08Z</time>
      </trkpt>
      <trkpt lat="48.73112" lon="7.34387">
        <ele>307</ele>
        <time>2026-05-13T06:13:33Z</time>
      </trkpt>
      <trkpt lat="48.73165" lon="7.34456">
        <ele>302</ele>
        <time>2026-05-13T06:13:46Z</time>
      </trkpt>
      <trkpt lat="48.73239" lon="7.3458">
        <ele>292</ele>
        <time>2026-05-13T06:14:05Z</time>
      </trkpt>
      <trkpt lat="48.73249" lon="7.34598">
        <ele>290</ele>
        <time>2026-05-13T06:14:08Z</time>
      </trkpt>
      <trkpt lat="48.73331" lon="7.34744">
        <ele>279</ele>
        <time>2026-05-13T06:14:31Z</time>
      </trkpt>
      <trkpt lat="48.73345" lon="7.34763">
        <ele>278</ele>
        <time>2026-05-13T06:14:34Z</time>
      </trkpt>
      <trkpt lat="48.73358" lon="7.34783">
        <ele>276</ele>
        <time>2026-05-13T06:14:37Z</time>
      </trkpt>
      <trkpt lat="48.73381" lon="7.34815">
        <ele>274</ele>
        <time>2026-05-13T06:14:43Z</time>
      </trkpt>
      <trkpt lat="48.73386" lon="7.34827">
        <ele>274</ele>
        <time>2026-05-13T06:14:44Z</time>
      </trkpt>
      <trkpt lat="48.7339" lon="7.34824">
        <ele>273</ele>
        <time>2026-05-13T06:14:45Z</time>
      </trkpt>
      <trkpt lat="48.734" lon="7.34823">
        <ele>272</ele>
        <time>2026-05-13T06:14:47Z</time>
      </trkpt>
      <trkpt lat="48.73412" lon="7.34824">
        <ele>270</ele>
        <time>2026-05-13T06:14:49Z</time>
      </trkpt>
      <trkpt lat="48.7351" lon="7.34832">
        <ele>264</ele>
        <time>2026-05-13T06:15:07Z</time>
      </trkpt>
      <trkpt lat="48.7352" lon="7.34835">
        <ele>263</ele>
        <time>2026-05-13T06:15:08Z</time>
      </trkpt>
      <trkpt lat="48.73535" lon="7.34841">
        <ele>261</ele>
        <time>2026-05-13T06:15:11Z</time>
      </trkpt>
      <trkpt lat="48.73576" lon="7.34858">
        <ele>257</ele>
        <time>2026-05-13T06:15:19Z</time>
      </trkpt>
      <trkpt lat="48.7359" lon="7.34864">
        <ele>256</ele>
        <time>2026-05-13T06:15:21Z</time>
      </trkpt>
      <trkpt lat="48.73607" lon="7.3487">
        <ele>254</ele>
        <time>2026-05-13T06:15:24Z</time>
      </trkpt>
      <trkpt lat="48.73751" lon="7.34907">
        <ele>238</ele>
        <time>2026-05-13T06:15:50Z</time>
      </trkpt>
      <trkpt lat="48.73792" lon="7.34917">
        <ele>235</ele>
        <time>2026-05-13T06:15:58Z</time>
      </trkpt>
      <trkpt lat="48.73831" lon="7.34922">
        <ele>232</ele>
        <time>2026-05-13T06:16:05Z</time>
      </trkpt>
      <trkpt lat="48.73851" lon="7.34924">
        <ele>230</ele>
        <time>2026-05-13T06:16:08Z</time>
      </trkpt>
      <trkpt lat="48.73867" lon="7.34932">
        <ele>228</ele>
        <time>2026-05-13T06:16:11Z</time>
      </trkpt>
      <trkpt lat="48.73879" lon="7.34941">
        <ele>227</ele>
        <time>2026-05-13T06:16:14Z</time>
      </trkpt>
      <trkpt lat="48.73914" lon="7.34972">
        <ele>225</ele>
        <time>2026-05-13T06:16:21Z</time>
      </trkpt>
      <trkpt lat="48.73937" lon="7.34996">
        <ele>222</ele>
        <time>2026-05-13T06:16:26Z</time>
      </trkpt>
      <trkpt lat="48.73954" lon="7.35016">
        <ele>219</ele>
        <time>2026-05-13T06:16:30Z</time>
      </trkpt>
      <trkpt lat="48.73978" lon="7.35051">
        <ele>214</ele>
        <time>2026-05-13T06:16:36Z</time>
      </trkpt>
      <trkpt lat="48.73993" lon="7.3508">
        <ele>211</ele>
        <time>2026-05-13T06:16:40Z</time>
      </trkpt>
      <trkpt lat="48.74007" lon="7.35116">
        <ele>209</ele>
        <time>2026-05-13T06:16:45Z</time>
      </trkpt>
      <trkpt lat="48.74012" lon="7.35132">
        <ele>208</ele>
        <time>2026-05-13T06:16:47Z</time>
      </trkpt>
      <trkpt lat="48.74016" lon="7.35149">
        <ele>208</ele>
        <time>2026-05-13T06:16:49Z</time>
      </trkpt>
      <trkpt lat="48.74019" lon="7.35171">
        <ele>207</ele>
        <time>2026-05-13T06:16:52Z</time>
      </trkpt>
      <trkpt lat="48.74021" lon="7.3519">
        <ele>206</ele>
        <time>2026-05-13T06:16:54Z</time>
      </trkpt>
      <trkpt lat="48.74024" lon="7.35224">
        <ele>205</ele>
        <time>2026-05-13T06:16:58Z</time>
      </trkpt>
      <trkpt lat="48.74024" lon="7.35232">
        <ele>205</ele>
        <time>2026-05-13T06:16:59Z</time>
      </trkpt>
      <trkpt lat="48.74027" lon="7.35273">
        <ele>203</ele>
        <time>2026-05-13T06:17:04Z</time>
      </trkpt>
      <trkpt lat="48.74035" lon="7.35426">
        <ele>199</ele>
        <time>2026-05-13T06:17:22Z</time>
      </trkpt>
      <trkpt lat="48.74037" lon="7.35452">
        <ele>198</ele>
        <time>2026-05-13T06:17:25Z</time>
      </trkpt>
      <trkpt lat="48.7404" lon="7.35471">
        <ele>197</ele>
        <time>2026-05-13T06:17:27Z</time>
      </trkpt>
      <trkpt lat="48.74083" lon="7.35455">
        <ele>194</ele>
        <time>2026-05-13T06:17:35Z</time>
      </trkpt>
      <trkpt lat="48.74091" lon="7.35453">
        <ele>193</ele>
        <time>2026-05-13T06:17:36Z</time>
      </trkpt>
      <trkpt lat="48.74088" lon="7.35626">
        <ele>196</ele>
        <time>2026-05-13T06:17:57Z</time>
      </trkpt>
      <trkpt lat="48.74091" lon="7.35637">
        <ele>196</ele>
        <time>2026-05-13T06:17:58Z</time>
      </trkpt>
      <trkpt lat="48.74092" lon="7.35652">
        <ele>197</ele>
        <time>2026-05-13T06:18:00Z</time>
      </trkpt>
      <trkpt lat="48.74086" lon="7.35918">
        <ele>199</ele>
        <time>2026-05-13T06:18:31Z</time>
      </trkpt>
      <trkpt lat="48.74098" lon="7.35939">
        <ele>199</ele>
        <time>2026-05-13T06:18:34Z</time>
      </trkpt>
      <trkpt lat="48.74114" lon="7.35971">
        <ele>198</ele>
        <time>2026-05-13T06:18:39Z</time>
      </trkpt>
      <trkpt lat="48.74136" lon="7.36012">
        <ele>198</ele>
        <time>2026-05-13T06:18:45Z</time>
      </trkpt>
      <trkpt lat="48.74137" lon="7.36014">
        <ele>198</ele>
        <time>2026-05-13T06:18:46Z</time>
      </trkpt>
      <trkpt lat="48.74174" lon="7.36082">
        <ele>198</ele>
        <time>2026-05-13T06:18:56Z</time>
      </trkpt>
      <trkpt lat="48.74186" lon="7.36107">
        <ele>197</ele>
        <time>2026-05-13T06:19:00Z</time>
      </trkpt>
      <trkpt lat="48.74194" lon="7.36124">
        <ele>196</ele>
        <time>2026-05-13T06:19:02Z</time>
      </trkpt>
      <trkpt lat="48.74201" lon="7.36139">
        <ele>195</ele>
        <time>2026-05-13T06:19:04Z</time>
      </trkpt>
      <trkpt lat="48.74261" lon="7.3625">
        <ele>188</ele>
        <time>2026-05-13T06:19:21Z</time>
      </trkpt>
      <trkpt lat="48.74287" lon="7.36299">
        <ele>188</ele>
        <time>2026-05-13T06:19:28Z</time>
      </trkpt>
      <trkpt lat="48.74349" lon="7.36421">
        <ele>187.4</ele>
        <time>2026-05-13T06:19:30Z</time>
      </trkpt>
      <trkpt lat="48.74362" lon="7.36454">
        <ele>187</ele>
        <time>2026-05-13T06:19:31Z</time>
      </trkpt>
      <trkpt lat="48.74279" lon="7.36559">
        <ele>187</ele>
        <time>2026-05-13T06:19:43Z</time>
      </trkpt>
      <trkpt lat="48.7426" lon="7.36585">
        <ele>187.6</ele>
        <time>2026-05-13T06:19:50Z</time>
      </trkpt>
      <trkpt lat="48.74226" lon="7.36525">
        <ele>189</ele>
        <time>2026-05-13T06:20:04Z</time>
        <extensions>
          <visugpx:TrkExtension xmlns:visugpx="https://www.visugpx.com/editgpx/">
            <visugpx:node>1</visugpx:node>
            </visugpx:TrkExtension>
        </extensions>
      </trkpt>
    </trkseg>
  </trk>
</gpx>